<?xml version="1.0" encoding="UTF-8" standalone="no" ?>
<gpx xmlns="http://www.topografix.com/GPX/1/1" xmlns:xsi="http://www.w3.org/2001/XMLSchema-instance" xsi:schemaLocation="http://www.topografix.com/GPX/1/1 http://www.topografix.com/GPX/1/1/gpx.xsd" version="1.1" creator="VisuGPX - https://www.visugpx.com">
  <metadata>
    <name>Etape 3: Saint-Florent-sur-Cher&gt; Selles-sur-Cher</name>
    <desc><![CDATA[Etape 3: Saint-Florent-sur-Cher> Selles-sur-Cher
Vendredi 15 juin]]></desc>
  </metadata>
  <trk>
    <name><![CDATA[20180610202720-Fjr1U]]></name>
    <trkseg>
      <trkpt lat="47.14293" lon="2.21113">
        <ele>115</ele>
        <time>2018-04-17T15:53:14Z</time>
      </trkpt>
      <trkpt lat="47.14285" lon="2.2109">
        <ele>115</ele>
        <time>2018-04-17T15:53:20Z</time>
      </trkpt>
      <trkpt lat="47.14292" lon="2.21082">
        <ele>116</ele>
        <time>2018-04-17T15:53:24Z</time>
      </trkpt>
      <trkpt lat="47.14294" lon="2.2108">
        <ele>115</ele>
        <time>2018-04-17T15:53:25Z</time>
      </trkpt>
      <trkpt lat="47.14309" lon="2.21066">
        <ele>115</ele>
        <time>2018-04-17T15:53:30Z</time>
      </trkpt>
      <trkpt lat="47.14333" lon="2.21044">
        <ele>115</ele>
        <time>2018-04-17T15:53:37Z</time>
      </trkpt>
      <trkpt lat="47.14337" lon="2.21044">
        <ele>115</ele>
        <time>2018-04-17T15:53:38Z</time>
      </trkpt>
      <trkpt lat="47.14351" lon="2.21039">
        <ele>115</ele>
        <time>2018-04-17T15:53:42Z</time>
      </trkpt>
      <trkpt lat="47.14361" lon="2.2103">
        <ele>115</ele>
        <time>2018-04-17T15:53:47Z</time>
      </trkpt>
      <trkpt lat="47.1437" lon="2.2102">
        <ele>115</ele>
        <time>2018-04-17T15:53:54Z</time>
      </trkpt>
      <trkpt lat="47.14381" lon="2.21009">
        <ele>116</ele>
        <time>2018-04-17T15:54:00Z</time>
      </trkpt>
      <trkpt lat="47.14393" lon="2.20998">
        <ele>115</ele>
        <time>2018-04-17T15:54:06Z</time>
      </trkpt>
      <trkpt lat="47.14407" lon="2.20988">
        <ele>116</ele>
        <time>2018-04-17T15:54:12Z</time>
      </trkpt>
      <trkpt lat="47.14418" lon="2.20977">
        <ele>115</ele>
        <time>2018-04-17T15:54:17Z</time>
      </trkpt>
      <trkpt lat="47.14435" lon="2.2096">
        <ele>114</ele>
        <time>2018-04-17T15:54:22Z</time>
      </trkpt>
      <trkpt lat="47.14445" lon="2.20948">
        <ele>114</ele>
        <time>2018-04-17T15:54:25Z</time>
      </trkpt>
      <trkpt lat="47.14456" lon="2.20937">
        <ele>114</ele>
        <time>2018-04-17T15:54:28Z</time>
      </trkpt>
      <trkpt lat="47.1448" lon="2.20912">
        <ele>114</ele>
        <time>2018-04-17T15:54:35Z</time>
      </trkpt>
      <trkpt lat="47.14488" lon="2.20894">
        <ele>114</ele>
        <time>2018-04-17T15:54:39Z</time>
      </trkpt>
      <trkpt lat="47.14487" lon="2.20889">
        <ele>114</ele>
        <time>2018-04-17T15:54:40Z</time>
      </trkpt>
      <trkpt lat="47.14483" lon="2.20878">
        <ele>114</ele>
        <time>2018-04-17T15:54:46Z</time>
      </trkpt>
      <trkpt lat="47.1448" lon="2.20875">
        <ele>114</ele>
        <time>2018-04-17T15:54:48Z</time>
      </trkpt>
      <trkpt lat="47.14482" lon="2.20873">
        <ele>114</ele>
        <time>2018-04-17T15:54:50Z</time>
      </trkpt>
      <trkpt lat="47.14484" lon="2.20872">
        <ele>114</ele>
        <time>2018-04-17T15:54:51Z</time>
      </trkpt>
      <trkpt lat="47.14492" lon="2.2087">
        <ele>114</ele>
        <time>2018-04-17T15:54:54Z</time>
      </trkpt>
      <trkpt lat="47.145" lon="2.20862">
        <ele>113</ele>
        <time>2018-04-17T15:54:57Z</time>
      </trkpt>
      <trkpt lat="47.14503" lon="2.20856">
        <ele>113</ele>
        <time>2018-04-17T15:54:58Z</time>
      </trkpt>
      <trkpt lat="47.14517" lon="2.20837">
        <ele>113</ele>
        <time>2018-04-17T15:55:03Z</time>
      </trkpt>
      <trkpt lat="47.14536" lon="2.2082">
        <ele>114</ele>
        <time>2018-04-17T15:55:10Z</time>
      </trkpt>
      <trkpt lat="47.14549" lon="2.20808">
        <ele>113</ele>
        <time>2018-04-17T15:55:17Z</time>
      </trkpt>
      <trkpt lat="47.14547" lon="2.20796">
        <ele>114</ele>
        <time>2018-04-17T15:55:21Z</time>
      </trkpt>
      <trkpt lat="47.14546" lon="2.20792">
        <ele>114</ele>
        <time>2018-04-17T15:55:22Z</time>
      </trkpt>
      <trkpt lat="47.1454" lon="2.20774">
        <ele>114</ele>
        <time>2018-04-17T15:55:27Z</time>
      </trkpt>
      <trkpt lat="47.14534" lon="2.20757">
        <ele>114</ele>
        <time>2018-04-17T15:55:32Z</time>
      </trkpt>
      <trkpt lat="47.14531" lon="2.20749">
        <ele>115</ele>
        <time>2018-04-17T15:55:34Z</time>
      </trkpt>
      <trkpt lat="47.14526" lon="2.20734">
        <ele>116</ele>
        <time>2018-04-17T15:55:38Z</time>
      </trkpt>
      <trkpt lat="47.14522" lon="2.20724">
        <ele>116</ele>
        <time>2018-04-17T15:55:41Z</time>
      </trkpt>
      <trkpt lat="47.14518" lon="2.20709">
        <ele>116</ele>
        <time>2018-04-17T15:55:47Z</time>
      </trkpt>
      <trkpt lat="47.1452" lon="2.20705">
        <ele>116</ele>
        <time>2018-04-17T15:55:49Z</time>
      </trkpt>
      <trkpt lat="47.14526" lon="2.207">
        <ele>116</ele>
        <time>2018-04-17T15:55:52Z</time>
      </trkpt>
      <trkpt lat="47.14539" lon="2.20686">
        <ele>116</ele>
        <time>2018-04-17T15:55:58Z</time>
      </trkpt>
      <trkpt lat="47.14541" lon="2.20685">
        <ele>116</ele>
        <time>2018-04-17T15:56:02Z</time>
      </trkpt>
      <trkpt lat="47.14542" lon="2.20685">
        <ele>116</ele>
        <time>2018-04-17T15:56:14Z</time>
      </trkpt>
      <trkpt lat="47.14541" lon="2.20683">
        <ele>116</ele>
        <time>2018-04-17T15:56:58Z</time>
      </trkpt>
      <trkpt lat="47.14543" lon="2.20682">
        <ele>116</ele>
        <time>2018-04-17T15:57:01Z</time>
      </trkpt>
      <trkpt lat="47.14544" lon="2.2068">
        <ele>116</ele>
        <time>2018-04-17T15:57:02Z</time>
      </trkpt>
      <trkpt lat="47.14553" lon="2.20673">
        <ele>116</ele>
        <time>2018-04-17T15:57:06Z</time>
      </trkpt>
      <trkpt lat="47.14563" lon="2.20663">
        <ele>116</ele>
        <time>2018-04-17T15:57:12Z</time>
      </trkpt>
      <trkpt lat="47.14565" lon="2.2066">
        <ele>116</ele>
        <time>2018-04-17T15:57:18Z</time>
      </trkpt>
      <trkpt lat="47.14568" lon="2.20656">
        <ele>116</ele>
        <time>2018-04-17T15:57:21Z</time>
      </trkpt>
      <trkpt lat="47.14567" lon="2.20653">
        <ele>116</ele>
        <time>2018-04-17T15:57:23Z</time>
      </trkpt>
      <trkpt lat="47.1456" lon="2.2064">
        <ele>117</ele>
        <time>2018-04-17T15:57:28Z</time>
      </trkpt>
      <trkpt lat="47.14555" lon="2.20628">
        <ele>117</ele>
        <time>2018-04-17T15:57:31Z</time>
      </trkpt>
      <trkpt lat="47.14551" lon="2.2062">
        <ele>117</ele>
        <time>2018-04-17T15:57:33Z</time>
      </trkpt>
      <trkpt lat="47.14543" lon="2.20602">
        <ele>117</ele>
        <time>2018-04-17T15:57:39Z</time>
      </trkpt>
      <trkpt lat="47.14541" lon="2.20597">
        <ele>117</ele>
        <time>2018-04-17T15:57:41Z</time>
      </trkpt>
      <trkpt lat="47.14537" lon="2.2059">
        <ele>117</ele>
        <time>2018-04-17T15:57:45Z</time>
      </trkpt>
      <trkpt lat="47.14536" lon="2.20589">
        <ele>117</ele>
        <time>2018-04-17T15:57:51Z</time>
      </trkpt>
      <trkpt lat="47.14533" lon="2.20583">
        <ele>118</ele>
        <time>2018-04-17T15:57:55Z</time>
      </trkpt>
      <trkpt lat="47.14532" lon="2.20582">
        <ele>118</ele>
        <time>2018-04-17T15:57:56Z</time>
      </trkpt>
      <trkpt lat="47.14528" lon="2.2057">
        <ele>118</ele>
        <time>2018-04-17T15:58:00Z</time>
      </trkpt>
      <trkpt lat="47.14524" lon="2.20564">
        <ele>118</ele>
        <time>2018-04-17T15:58:02Z</time>
      </trkpt>
      <trkpt lat="47.14518" lon="2.20547">
        <ele>118</ele>
        <time>2018-04-17T15:58:06Z</time>
      </trkpt>
      <trkpt lat="47.14505" lon="2.20518">
        <ele>118</ele>
        <time>2018-04-17T15:58:13Z</time>
      </trkpt>
      <trkpt lat="47.14504" lon="2.20514">
        <ele>118</ele>
        <time>2018-04-17T15:58:14Z</time>
      </trkpt>
      <trkpt lat="47.14496" lon="2.20494">
        <ele>118</ele>
        <time>2018-04-17T15:58:19Z</time>
      </trkpt>
      <trkpt lat="47.14482" lon="2.20463">
        <ele>119</ele>
        <time>2018-04-17T15:58:27Z</time>
      </trkpt>
      <trkpt lat="47.1447" lon="2.20431">
        <ele>119</ele>
        <time>2018-04-17T15:58:35Z</time>
      </trkpt>
      <trkpt lat="47.14468" lon="2.20427">
        <ele>119</ele>
        <time>2018-04-17T15:58:36Z</time>
      </trkpt>
      <trkpt lat="47.14455" lon="2.20397">
        <ele>120</ele>
        <time>2018-04-17T15:58:43Z</time>
      </trkpt>
      <trkpt lat="47.14447" lon="2.20371">
        <ele>120</ele>
        <time>2018-04-17T15:58:49Z</time>
      </trkpt>
      <trkpt lat="47.14447" lon="2.20341">
        <ele>120</ele>
        <time>2018-04-17T15:58:55Z</time>
      </trkpt>
      <trkpt lat="47.1445" lon="2.20308">
        <ele>121</ele>
        <time>2018-04-17T15:59:02Z</time>
      </trkpt>
      <trkpt lat="47.14455" lon="2.20276">
        <ele>121</ele>
        <time>2018-04-17T15:59:09Z</time>
      </trkpt>
      <trkpt lat="47.1446" lon="2.20241">
        <ele>121</ele>
        <time>2018-04-17T15:59:17Z</time>
      </trkpt>
      <trkpt lat="47.14462" lon="2.202">
        <ele>121</ele>
        <time>2018-04-17T15:59:25Z</time>
      </trkpt>
      <trkpt lat="47.14458" lon="2.20157">
        <ele>120</ele>
        <time>2018-04-17T15:59:33Z</time>
      </trkpt>
      <trkpt lat="47.14446" lon="2.2011">
        <ele>120</ele>
        <time>2018-04-17T15:59:41Z</time>
      </trkpt>
      <trkpt lat="47.14432" lon="2.20065">
        <ele>121</ele>
        <time>2018-04-17T15:59:49Z</time>
      </trkpt>
      <trkpt lat="47.14422" lon="2.20033">
        <ele>121</ele>
        <time>2018-04-17T15:59:55Z</time>
      </trkpt>
      <trkpt lat="47.14418" lon="2.20023">
        <ele>121</ele>
        <time>2018-04-17T15:59:57Z</time>
      </trkpt>
      <trkpt lat="47.14403" lon="2.19977">
        <ele>121</ele>
        <time>2018-04-17T16:00:06Z</time>
      </trkpt>
      <trkpt lat="47.14397" lon="2.19961">
        <ele>120</ele>
        <time>2018-04-17T16:00:10Z</time>
      </trkpt>
      <trkpt lat="47.14396" lon="2.19955">
        <ele>120</ele>
        <time>2018-04-17T16:00:12Z</time>
      </trkpt>
      <trkpt lat="47.14394" lon="2.19947">
        <ele>120</ele>
        <time>2018-04-17T16:00:17Z</time>
      </trkpt>
      <trkpt lat="47.14394" lon="2.19946">
        <ele>120</ele>
        <time>2018-04-17T16:00:18Z</time>
      </trkpt>
      <trkpt lat="47.14393" lon="2.19944">
        <ele>120</ele>
        <time>2018-04-17T16:00:20Z</time>
      </trkpt>
      <trkpt lat="47.14393" lon="2.19941">
        <ele>120</ele>
        <time>2018-04-17T16:00:22Z</time>
      </trkpt>
      <trkpt lat="47.14396" lon="2.19935">
        <ele>120</ele>
        <time>2018-04-17T16:00:25Z</time>
      </trkpt>
      <trkpt lat="47.1441" lon="2.19922">
        <ele>120</ele>
        <time>2018-04-17T16:00:31Z</time>
      </trkpt>
      <trkpt lat="47.14429" lon="2.19902">
        <ele>119</ele>
        <time>2018-04-17T16:00:38Z</time>
      </trkpt>
      <trkpt lat="47.14443" lon="2.19888">
        <ele>118</ele>
        <time>2018-04-17T16:00:42Z</time>
      </trkpt>
      <trkpt lat="47.14455" lon="2.19876">
        <ele>118</ele>
        <time>2018-04-17T16:00:46Z</time>
      </trkpt>
      <trkpt lat="47.14475" lon="2.19853">
        <ele>117</ele>
        <time>2018-04-17T16:00:54Z</time>
      </trkpt>
      <trkpt lat="47.14491" lon="2.19837">
        <ele>117</ele>
        <time>2018-04-17T16:01:00Z</time>
      </trkpt>
      <trkpt lat="47.14508" lon="2.19818">
        <ele>116</ele>
        <time>2018-04-17T16:01:08Z</time>
      </trkpt>
      <trkpt lat="47.14512" lon="2.19811">
        <ele>116</ele>
        <time>2018-04-17T16:01:12Z</time>
      </trkpt>
      <trkpt lat="47.14513" lon="2.19809">
        <ele>116</ele>
        <time>2018-04-17T16:01:14Z</time>
      </trkpt>
      <trkpt lat="47.14513" lon="2.19809">
        <ele>116</ele>
        <time>2018-04-17T16:01:18Z</time>
      </trkpt>
      <trkpt lat="47.14513" lon="2.19809">
        <ele>116</ele>
        <time>2018-04-17T16:01:28Z</time>
      </trkpt>
      <trkpt lat="47.14513" lon="2.19809">
        <ele>116</ele>
        <time>2018-04-17T16:01:40Z</time>
      </trkpt>
      <trkpt lat="47.14512" lon="2.19809">
        <ele>116</ele>
        <time>2018-04-17T16:01:47Z</time>
      </trkpt>
      <trkpt lat="47.14512" lon="2.19809">
        <ele>116</ele>
        <time>2018-04-17T16:02:04Z</time>
      </trkpt>
      <trkpt lat="47.14512" lon="2.19809">
        <ele>116</ele>
        <time>2018-04-17T16:02:13Z</time>
      </trkpt>
      <trkpt lat="47.14512" lon="2.19809">
        <ele>116</ele>
        <time>2018-04-17T16:02:18Z</time>
      </trkpt>
      <trkpt lat="47.14512" lon="2.19809">
        <ele>116</ele>
        <time>2018-04-17T16:02:24Z</time>
      </trkpt>
      <trkpt lat="47.14512" lon="2.19809">
        <ele>116</ele>
        <time>2018-04-17T16:02:34Z</time>
      </trkpt>
      <trkpt lat="47.14512" lon="2.19809">
        <ele>116</ele>
        <time>2018-04-17T16:02:47Z</time>
      </trkpt>
      <trkpt lat="47.14512" lon="2.19809">
        <ele>116</ele>
        <time>2018-04-17T16:03:00Z</time>
      </trkpt>
      <trkpt lat="47.14513" lon="2.19809">
        <ele>116</ele>
        <time>2018-04-17T16:03:12Z</time>
      </trkpt>
      <trkpt lat="47.14513" lon="2.19809">
        <ele>116</ele>
        <time>2018-04-17T16:03:29Z</time>
      </trkpt>
      <trkpt lat="47.14513" lon="2.19809">
        <ele>116</ele>
        <time>2018-04-17T16:03:41Z</time>
      </trkpt>
      <trkpt lat="47.14513" lon="2.19809">
        <ele>116</ele>
        <time>2018-04-17T16:03:46Z</time>
      </trkpt>
      <trkpt lat="47.14513" lon="2.19809">
        <ele>116</ele>
        <time>2018-04-17T16:03:50Z</time>
      </trkpt>
      <trkpt lat="47.14513" lon="2.19809">
        <ele>116</ele>
        <time>2018-04-17T16:04:02Z</time>
      </trkpt>
      <trkpt lat="47.14513" lon="2.19809">
        <ele>116</ele>
        <time>2018-04-17T16:04:14Z</time>
      </trkpt>
      <trkpt lat="47.14513" lon="2.19809">
        <ele>116</ele>
        <time>2018-04-17T16:04:27Z</time>
      </trkpt>
      <trkpt lat="47.14514" lon="2.19808">
        <ele>116</ele>
        <time>2018-04-17T16:04:32Z</time>
      </trkpt>
      <trkpt lat="47.14517" lon="2.19805">
        <ele>117</ele>
        <time>2018-04-17T16:04:34Z</time>
      </trkpt>
      <trkpt lat="47.14531" lon="2.19791">
        <ele>117</ele>
        <time>2018-04-17T16:04:44Z</time>
      </trkpt>
      <trkpt lat="47.14545" lon="2.19775">
        <ele>117</ele>
        <time>2018-04-17T16:04:49Z</time>
      </trkpt>
      <trkpt lat="47.14559" lon="2.19758">
        <ele>117</ele>
        <time>2018-04-17T16:04:55Z</time>
      </trkpt>
      <trkpt lat="47.14572" lon="2.19744">
        <ele>117</ele>
        <time>2018-04-17T16:05:01Z</time>
      </trkpt>
      <trkpt lat="47.14587" lon="2.19729">
        <ele>118</ele>
        <time>2018-04-17T16:05:06Z</time>
      </trkpt>
      <trkpt lat="47.14602" lon="2.1971">
        <ele>118</ele>
        <time>2018-04-17T16:05:12Z</time>
      </trkpt>
      <trkpt lat="47.14616" lon="2.19691">
        <ele>117</ele>
        <time>2018-04-17T16:05:18Z</time>
      </trkpt>
      <trkpt lat="47.14638" lon="2.19667">
        <ele>117</ele>
        <time>2018-04-17T16:05:27Z</time>
      </trkpt>
      <trkpt lat="47.1465" lon="2.19656">
        <ele>117</ele>
        <time>2018-04-17T16:05:32Z</time>
      </trkpt>
      <trkpt lat="47.14669" lon="2.19635">
        <ele>117</ele>
        <time>2018-04-17T16:05:39Z</time>
      </trkpt>
      <trkpt lat="47.14686" lon="2.19615">
        <ele>116</ele>
        <time>2018-04-17T16:05:45Z</time>
      </trkpt>
      <trkpt lat="47.14703" lon="2.19588">
        <ele>116</ele>
        <time>2018-04-17T16:05:52Z</time>
      </trkpt>
      <trkpt lat="47.14724" lon="2.1956">
        <ele>116</ele>
        <time>2018-04-17T16:06:00Z</time>
      </trkpt>
      <trkpt lat="47.14735" lon="2.19545">
        <ele>116</ele>
        <time>2018-04-17T16:06:05Z</time>
      </trkpt>
      <trkpt lat="47.14746" lon="2.19533">
        <ele>116</ele>
        <time>2018-04-17T16:06:10Z</time>
      </trkpt>
      <trkpt lat="47.14752" lon="2.1952">
        <ele>116</ele>
        <time>2018-04-17T16:06:15Z</time>
      </trkpt>
      <trkpt lat="47.14763" lon="2.19505">
        <ele>116</ele>
        <time>2018-04-17T16:06:21Z</time>
      </trkpt>
      <trkpt lat="47.14779" lon="2.19483">
        <ele>117</ele>
        <time>2018-04-17T16:06:28Z</time>
      </trkpt>
      <trkpt lat="47.14782" lon="2.19479">
        <ele>117</ele>
        <time>2018-04-17T16:06:29Z</time>
      </trkpt>
      <trkpt lat="47.14798" lon="2.19455">
        <ele>117</ele>
        <time>2018-04-17T16:06:36Z</time>
      </trkpt>
      <trkpt lat="47.14821" lon="2.19423">
        <ele>117</ele>
        <time>2018-04-17T16:06:46Z</time>
      </trkpt>
      <trkpt lat="47.14839" lon="2.19399">
        <ele>117</ele>
        <time>2018-04-17T16:06:54Z</time>
      </trkpt>
      <trkpt lat="47.14855" lon="2.19377">
        <ele>117</ele>
        <time>2018-04-17T16:07:01Z</time>
      </trkpt>
      <trkpt lat="47.14869" lon="2.19358">
        <ele>117</ele>
        <time>2018-04-17T16:07:07Z</time>
      </trkpt>
      <trkpt lat="47.14885" lon="2.19337">
        <ele>117</ele>
        <time>2018-04-17T16:07:14Z</time>
      </trkpt>
      <trkpt lat="47.14902" lon="2.19313">
        <ele>117</ele>
        <time>2018-04-17T16:07:21Z</time>
      </trkpt>
      <trkpt lat="47.14921" lon="2.1929">
        <ele>117</ele>
        <time>2018-04-17T16:07:29Z</time>
      </trkpt>
      <trkpt lat="47.14929" lon="2.19276">
        <ele>117</ele>
        <time>2018-04-17T16:07:33Z</time>
      </trkpt>
      <trkpt lat="47.14949" lon="2.19248">
        <ele>117</ele>
        <time>2018-04-17T16:07:41Z</time>
      </trkpt>
      <trkpt lat="47.14974" lon="2.19213">
        <ele>117</ele>
        <time>2018-04-17T16:07:51Z</time>
      </trkpt>
      <trkpt lat="47.15001" lon="2.19175">
        <ele>117</ele>
        <time>2018-04-17T16:08:02Z</time>
      </trkpt>
      <trkpt lat="47.15019" lon="2.19152">
        <ele>117</ele>
        <time>2018-04-17T16:08:09Z</time>
      </trkpt>
      <trkpt lat="47.15036" lon="2.1913">
        <ele>117</ele>
        <time>2018-04-17T16:08:16Z</time>
      </trkpt>
      <trkpt lat="47.15045" lon="2.19115">
        <ele>117</ele>
        <time>2018-04-17T16:08:21Z</time>
      </trkpt>
      <trkpt lat="47.15063" lon="2.19093">
        <ele>117</ele>
        <time>2018-04-17T16:08:28Z</time>
      </trkpt>
      <trkpt lat="47.15084" lon="2.19066">
        <ele>117</ele>
        <time>2018-04-17T16:08:36Z</time>
      </trkpt>
      <trkpt lat="47.15105" lon="2.19038">
        <ele>117</ele>
        <time>2018-04-17T16:08:44Z</time>
      </trkpt>
      <trkpt lat="47.15125" lon="2.19011">
        <ele>117</ele>
        <time>2018-04-17T16:08:52Z</time>
      </trkpt>
      <trkpt lat="47.15138" lon="2.1899">
        <ele>117</ele>
        <time>2018-04-17T16:08:58Z</time>
      </trkpt>
      <trkpt lat="47.15152" lon="2.18965">
        <ele>117</ele>
        <time>2018-04-17T16:09:05Z</time>
      </trkpt>
      <trkpt lat="47.15171" lon="2.18927">
        <ele>118</ele>
        <time>2018-04-17T16:09:14Z</time>
      </trkpt>
      <trkpt lat="47.15184" lon="2.18899">
        <ele>118</ele>
        <time>2018-04-17T16:09:21Z</time>
      </trkpt>
      <trkpt lat="47.15199" lon="2.18866">
        <ele>118</ele>
        <time>2018-04-17T16:09:29Z</time>
      </trkpt>
      <trkpt lat="47.15219" lon="2.18823">
        <ele>119</ele>
        <time>2018-04-17T16:09:39Z</time>
      </trkpt>
      <trkpt lat="47.15239" lon="2.18782">
        <ele>119</ele>
        <time>2018-04-17T16:09:48Z</time>
      </trkpt>
      <trkpt lat="47.15253" lon="2.18752">
        <ele>119</ele>
        <time>2018-04-17T16:09:55Z</time>
      </trkpt>
      <trkpt lat="47.15269" lon="2.18719">
        <ele>119</ele>
        <time>2018-04-17T16:10:03Z</time>
      </trkpt>
      <trkpt lat="47.15279" lon="2.18698">
        <ele>120</ele>
        <time>2018-04-17T16:10:08Z</time>
      </trkpt>
      <trkpt lat="47.15298" lon="2.18671">
        <ele>120</ele>
        <time>2018-04-17T16:10:15Z</time>
      </trkpt>
      <trkpt lat="47.15325" lon="2.18639">
        <ele>121</ele>
        <time>2018-04-17T16:10:24Z</time>
      </trkpt>
      <trkpt lat="47.15351" lon="2.18607">
        <ele>121</ele>
        <time>2018-04-17T16:10:33Z</time>
      </trkpt>
      <trkpt lat="47.15373" lon="2.18579">
        <ele>120</ele>
        <time>2018-04-17T16:10:41Z</time>
      </trkpt>
      <trkpt lat="47.1539" lon="2.18558">
        <ele>120</ele>
        <time>2018-04-17T16:10:47Z</time>
      </trkpt>
      <trkpt lat="47.15392" lon="2.18554">
        <ele>120</ele>
        <time>2018-04-17T16:10:48Z</time>
      </trkpt>
      <trkpt lat="47.15412" lon="2.18522">
        <ele>119</ele>
        <time>2018-04-17T16:10:56Z</time>
      </trkpt>
      <trkpt lat="47.15431" lon="2.18484">
        <ele>118</ele>
        <time>2018-04-17T16:11:05Z</time>
      </trkpt>
      <trkpt lat="47.15436" lon="2.18471">
        <ele>118</ele>
        <time>2018-04-17T16:11:08Z</time>
      </trkpt>
      <trkpt lat="47.1544" lon="2.18463">
        <ele>118</ele>
        <time>2018-04-17T16:11:10Z</time>
      </trkpt>
      <trkpt lat="47.15445" lon="2.18452">
        <ele>118</ele>
        <time>2018-04-17T16:11:13Z</time>
      </trkpt>
      <trkpt lat="47.15456" lon="2.18426">
        <ele>118</ele>
        <time>2018-04-17T16:11:20Z</time>
      </trkpt>
      <trkpt lat="47.15464" lon="2.18407">
        <ele>118</ele>
        <time>2018-04-17T16:11:25Z</time>
      </trkpt>
      <trkpt lat="47.15467" lon="2.18398">
        <ele>118</ele>
        <time>2018-04-17T16:11:27Z</time>
      </trkpt>
      <trkpt lat="47.15481" lon="2.18361">
        <ele>119</ele>
        <time>2018-04-17T16:11:35Z</time>
      </trkpt>
      <trkpt lat="47.15497" lon="2.18317">
        <ele>120</ele>
        <time>2018-04-17T16:11:44Z</time>
      </trkpt>
      <trkpt lat="47.15515" lon="2.18271">
        <ele>121</ele>
        <time>2018-04-17T16:11:54Z</time>
      </trkpt>
      <trkpt lat="47.15517" lon="2.18267">
        <ele>121</ele>
        <time>2018-04-17T16:11:55Z</time>
      </trkpt>
      <trkpt lat="47.1554" lon="2.18223">
        <ele>122</ele>
        <time>2018-04-17T16:12:05Z</time>
      </trkpt>
      <trkpt lat="47.15559" lon="2.1819">
        <ele>122</ele>
        <time>2018-04-17T16:12:13Z</time>
      </trkpt>
      <trkpt lat="47.15581" lon="2.18157">
        <ele>122</ele>
        <time>2018-04-17T16:12:21Z</time>
      </trkpt>
      <trkpt lat="47.156" lon="2.18127">
        <ele>123</ele>
        <time>2018-04-17T16:12:28Z</time>
      </trkpt>
      <trkpt lat="47.15603" lon="2.18123">
        <ele>123</ele>
        <time>2018-04-17T16:12:29Z</time>
      </trkpt>
      <trkpt lat="47.1563" lon="2.1808">
        <ele>124</ele>
        <time>2018-04-17T16:12:39Z</time>
      </trkpt>
      <trkpt lat="47.15651" lon="2.18044">
        <ele>124</ele>
        <time>2018-04-17T16:12:47Z</time>
      </trkpt>
      <trkpt lat="47.15673" lon="2.18008">
        <ele>124</ele>
        <time>2018-04-17T16:12:55Z</time>
      </trkpt>
      <trkpt lat="47.15696" lon="2.1797">
        <ele>124</ele>
        <time>2018-04-17T16:13:03Z</time>
      </trkpt>
      <trkpt lat="47.15727" lon="2.17921">
        <ele>124</ele>
        <time>2018-04-17T16:13:13Z</time>
      </trkpt>
      <trkpt lat="47.15754" lon="2.17875">
        <ele>124</ele>
        <time>2018-04-17T16:13:23Z</time>
      </trkpt>
      <trkpt lat="47.15758" lon="2.1787">
        <ele>124</ele>
        <time>2018-04-17T16:13:25Z</time>
      </trkpt>
      <trkpt lat="47.15764" lon="2.17865">
        <ele>124</ele>
        <time>2018-04-17T16:13:28Z</time>
      </trkpt>
      <trkpt lat="47.15772" lon="2.17852">
        <ele>124</ele>
        <time>2018-04-17T16:13:34Z</time>
      </trkpt>
      <trkpt lat="47.15772" lon="2.17851">
        <ele>124</ele>
        <time>2018-04-17T16:13:42Z</time>
      </trkpt>
      <trkpt lat="47.15779" lon="2.17843">
        <ele>124</ele>
        <time>2018-04-17T16:13:46Z</time>
      </trkpt>
      <trkpt lat="47.15781" lon="2.1784">
        <ele>124</ele>
        <time>2018-04-17T16:13:47Z</time>
      </trkpt>
      <trkpt lat="47.15796" lon="2.17819">
        <ele>124</ele>
        <time>2018-04-17T16:13:53Z</time>
      </trkpt>
      <trkpt lat="47.15821" lon="2.17783">
        <ele>124</ele>
        <time>2018-04-17T16:14:01Z</time>
      </trkpt>
      <trkpt lat="47.15843" lon="2.17752">
        <ele>124</ele>
        <time>2018-04-17T16:14:08Z</time>
      </trkpt>
      <trkpt lat="47.15846" lon="2.17747">
        <ele>124</ele>
        <time>2018-04-17T16:14:09Z</time>
      </trkpt>
      <trkpt lat="47.15849" lon="2.17742">
        <ele>124</ele>
        <time>2018-04-17T16:14:10Z</time>
      </trkpt>
      <trkpt lat="47.15868" lon="2.17715">
        <ele>124</ele>
        <time>2018-04-17T16:14:16Z</time>
      </trkpt>
      <trkpt lat="47.15894" lon="2.17677">
        <ele>124</ele>
        <time>2018-04-17T16:14:24Z</time>
      </trkpt>
      <trkpt lat="47.159" lon="2.17668">
        <ele>125</ele>
        <time>2018-04-17T16:14:26Z</time>
      </trkpt>
      <trkpt lat="47.1591" lon="2.17655">
        <ele>124</ele>
        <time>2018-04-17T16:14:29Z</time>
      </trkpt>
      <trkpt lat="47.15916" lon="2.17646">
        <ele>124</ele>
        <time>2018-04-17T16:14:31Z</time>
      </trkpt>
      <trkpt lat="47.1594" lon="2.17613">
        <ele>123</ele>
        <time>2018-04-17T16:14:39Z</time>
      </trkpt>
      <trkpt lat="47.15954" lon="2.17591">
        <ele>123</ele>
        <time>2018-04-17T16:14:45Z</time>
      </trkpt>
      <trkpt lat="47.15973" lon="2.17563">
        <ele>122</ele>
        <time>2018-04-17T16:14:52Z</time>
      </trkpt>
      <trkpt lat="47.15999" lon="2.17527">
        <ele>121</ele>
        <time>2018-04-17T16:15:00Z</time>
      </trkpt>
      <trkpt lat="47.16034" lon="2.1748">
        <ele>121</ele>
        <time>2018-04-17T16:15:10Z</time>
      </trkpt>
      <trkpt lat="47.16041" lon="2.17471">
        <ele>121</ele>
        <time>2018-04-17T16:15:12Z</time>
      </trkpt>
      <trkpt lat="47.16057" lon="2.17448">
        <ele>121</ele>
        <time>2018-04-17T16:15:17Z</time>
      </trkpt>
      <trkpt lat="47.16077" lon="2.17418">
        <ele>122</ele>
        <time>2018-04-17T16:15:23Z</time>
      </trkpt>
      <trkpt lat="47.1608" lon="2.17413">
        <ele>122</ele>
        <time>2018-04-17T16:15:24Z</time>
      </trkpt>
      <trkpt lat="47.16108" lon="2.17373">
        <ele>121</ele>
        <time>2018-04-17T16:15:33Z</time>
      </trkpt>
      <trkpt lat="47.16132" lon="2.17339">
        <ele>121</ele>
        <time>2018-04-17T16:15:41Z</time>
      </trkpt>
      <trkpt lat="47.16156" lon="2.17305">
        <ele>121</ele>
        <time>2018-04-17T16:15:49Z</time>
      </trkpt>
      <trkpt lat="47.16187" lon="2.17263">
        <ele>121</ele>
        <time>2018-04-17T16:15:59Z</time>
      </trkpt>
      <trkpt lat="47.16219" lon="2.17216">
        <ele>121</ele>
        <time>2018-04-17T16:16:09Z</time>
      </trkpt>
      <trkpt lat="47.16246" lon="2.17176">
        <ele>120</ele>
        <time>2018-04-17T16:16:17Z</time>
      </trkpt>
      <trkpt lat="47.1625" lon="2.1717">
        <ele>119</ele>
        <time>2018-04-17T16:16:18Z</time>
      </trkpt>
      <trkpt lat="47.16256" lon="2.1716">
        <ele>119</ele>
        <time>2018-04-17T16:16:20Z</time>
      </trkpt>
      <trkpt lat="47.1627" lon="2.17142">
        <ele>120</ele>
        <time>2018-04-17T16:16:24Z</time>
      </trkpt>
      <trkpt lat="47.16297" lon="2.17105">
        <ele>120</ele>
        <time>2018-04-17T16:16:32Z</time>
      </trkpt>
      <trkpt lat="47.16324" lon="2.17066">
        <ele>122</ele>
        <time>2018-04-17T16:16:41Z</time>
      </trkpt>
      <trkpt lat="47.1633" lon="2.17057">
        <ele>122</ele>
        <time>2018-04-17T16:16:43Z</time>
      </trkpt>
      <trkpt lat="47.16341" lon="2.17043">
        <ele>122</ele>
        <time>2018-04-17T16:16:47Z</time>
      </trkpt>
      <trkpt lat="47.16355" lon="2.17027">
        <ele>122</ele>
        <time>2018-04-17T16:16:52Z</time>
      </trkpt>
      <trkpt lat="47.16367" lon="2.17015">
        <ele>122</ele>
        <time>2018-04-17T16:16:58Z</time>
      </trkpt>
      <trkpt lat="47.16376" lon="2.16997">
        <ele>122</ele>
        <time>2018-04-17T16:17:03Z</time>
      </trkpt>
      <trkpt lat="47.16395" lon="2.16967">
        <ele>122</ele>
        <time>2018-04-17T16:17:10Z</time>
      </trkpt>
      <trkpt lat="47.16411" lon="2.16945">
        <ele>121</ele>
        <time>2018-04-17T16:17:16Z</time>
      </trkpt>
      <trkpt lat="47.16426" lon="2.16923">
        <ele>121</ele>
        <time>2018-04-17T16:17:23Z</time>
      </trkpt>
      <trkpt lat="47.16439" lon="2.16904">
        <ele>121</ele>
        <time>2018-04-17T16:17:28Z</time>
      </trkpt>
      <trkpt lat="47.16442" lon="2.169">
        <ele>121</ele>
        <time>2018-04-17T16:17:29Z</time>
      </trkpt>
      <trkpt lat="47.16464" lon="2.16872">
        <ele>120</ele>
        <time>2018-04-17T16:17:36Z</time>
      </trkpt>
      <trkpt lat="47.16473" lon="2.1686">
        <ele>121</ele>
        <time>2018-04-17T16:17:39Z</time>
      </trkpt>
      <trkpt lat="47.16485" lon="2.16844">
        <ele>121</ele>
        <time>2018-04-17T16:17:43Z</time>
      </trkpt>
      <trkpt lat="47.1649" lon="2.16835">
        <ele>121</ele>
        <time>2018-04-17T16:17:45Z</time>
      </trkpt>
      <trkpt lat="47.165" lon="2.16823">
        <ele>121</ele>
        <time>2018-04-17T16:17:48Z</time>
      </trkpt>
      <trkpt lat="47.16506" lon="2.16814">
        <ele>121</ele>
        <time>2018-04-17T16:17:50Z</time>
      </trkpt>
      <trkpt lat="47.16515" lon="2.16803">
        <ele>121</ele>
        <time>2018-04-17T16:17:53Z</time>
      </trkpt>
      <trkpt lat="47.16543" lon="2.16766">
        <ele>122</ele>
        <time>2018-04-17T16:18:02Z</time>
      </trkpt>
      <trkpt lat="47.16549" lon="2.16758">
        <ele>122</ele>
        <time>2018-04-17T16:18:04Z</time>
      </trkpt>
      <trkpt lat="47.16563" lon="2.16742">
        <ele>122</ele>
        <time>2018-04-17T16:18:08Z</time>
      </trkpt>
      <trkpt lat="47.16599" lon="2.16701">
        <ele>121</ele>
        <time>2018-04-17T16:18:18Z</time>
      </trkpt>
      <trkpt lat="47.16634" lon="2.16667">
        <ele>120</ele>
        <time>2018-04-17T16:18:27Z</time>
      </trkpt>
      <trkpt lat="47.16643" lon="2.16657">
        <ele>120</ele>
        <time>2018-04-17T16:18:29Z</time>
      </trkpt>
      <trkpt lat="47.16668" lon="2.16627">
        <ele>119</ele>
        <time>2018-04-17T16:18:35Z</time>
      </trkpt>
      <trkpt lat="47.16697" lon="2.16588">
        <ele>120</ele>
        <time>2018-04-17T16:18:43Z</time>
      </trkpt>
      <trkpt lat="47.16701" lon="2.16583">
        <ele>120</ele>
        <time>2018-04-17T16:18:44Z</time>
      </trkpt>
      <trkpt lat="47.16725" lon="2.16548">
        <ele>119</ele>
        <time>2018-04-17T16:18:51Z</time>
      </trkpt>
      <trkpt lat="47.16739" lon="2.16529">
        <ele>119</ele>
        <time>2018-04-17T16:18:55Z</time>
      </trkpt>
      <trkpt lat="47.16746" lon="2.16519">
        <ele>119</ele>
        <time>2018-04-17T16:18:57Z</time>
      </trkpt>
      <trkpt lat="47.16757" lon="2.16504">
        <ele>119</ele>
        <time>2018-04-17T16:19:00Z</time>
      </trkpt>
      <trkpt lat="47.16768" lon="2.16488">
        <ele>119</ele>
        <time>2018-04-17T16:19:03Z</time>
      </trkpt>
      <trkpt lat="47.16772" lon="2.16482">
        <ele>118</ele>
        <time>2018-04-17T16:19:04Z</time>
      </trkpt>
      <trkpt lat="47.16799" lon="2.16444">
        <ele>118</ele>
        <time>2018-04-17T16:19:11Z</time>
      </trkpt>
      <trkpt lat="47.16807" lon="2.16433">
        <ele>118</ele>
        <time>2018-04-17T16:19:13Z</time>
      </trkpt>
      <trkpt lat="47.16819" lon="2.16417">
        <ele>119</ele>
        <time>2018-04-17T16:19:16Z</time>
      </trkpt>
      <trkpt lat="47.16823" lon="2.16412">
        <ele>119</ele>
        <time>2018-04-17T16:19:17Z</time>
      </trkpt>
      <trkpt lat="47.1684" lon="2.16391">
        <ele>118</ele>
        <time>2018-04-17T16:19:21Z</time>
      </trkpt>
      <trkpt lat="47.16871" lon="2.16355">
        <ele>118</ele>
        <time>2018-04-17T16:19:28Z</time>
      </trkpt>
      <trkpt lat="47.16876" lon="2.1635">
        <ele>118</ele>
        <time>2018-04-17T16:19:29Z</time>
      </trkpt>
      <trkpt lat="47.16885" lon="2.1634">
        <ele>118</ele>
        <time>2018-04-17T16:19:31Z</time>
      </trkpt>
      <trkpt lat="47.16889" lon="2.16335">
        <ele>118</ele>
        <time>2018-04-17T16:19:32Z</time>
      </trkpt>
      <trkpt lat="47.16934" lon="2.16289">
        <ele>116</ele>
        <time>2018-04-17T16:19:42Z</time>
      </trkpt>
      <trkpt lat="47.1697" lon="2.16253">
        <ele>116</ele>
        <time>2018-04-17T16:19:50Z</time>
      </trkpt>
      <trkpt lat="47.16994" lon="2.1623">
        <ele>116</ele>
        <time>2018-04-17T16:19:55Z</time>
      </trkpt>
      <trkpt lat="47.17004" lon="2.16221">
        <ele>116</ele>
        <time>2018-04-17T16:19:57Z</time>
      </trkpt>
      <trkpt lat="47.17026" lon="2.16198">
        <ele>116</ele>
        <time>2018-04-17T16:20:02Z</time>
      </trkpt>
      <trkpt lat="47.17036" lon="2.1619">
        <ele>116</ele>
        <time>2018-04-17T16:20:04Z</time>
      </trkpt>
      <trkpt lat="47.17063" lon="2.16162">
        <ele>116</ele>
        <time>2018-04-17T16:20:10Z</time>
      </trkpt>
      <trkpt lat="47.17089" lon="2.16137">
        <ele>116</ele>
        <time>2018-04-17T16:20:16Z</time>
      </trkpt>
      <trkpt lat="47.17098" lon="2.16129">
        <ele>116</ele>
        <time>2018-04-17T16:20:18Z</time>
      </trkpt>
      <trkpt lat="47.17134" lon="2.16091">
        <ele>116</ele>
        <time>2018-04-17T16:20:27Z</time>
      </trkpt>
      <trkpt lat="47.17142" lon="2.16081">
        <ele>116</ele>
        <time>2018-04-17T16:20:29Z</time>
      </trkpt>
      <trkpt lat="47.17155" lon="2.16068">
        <ele>117</ele>
        <time>2018-04-17T16:20:32Z</time>
      </trkpt>
      <trkpt lat="47.17159" lon="2.16064">
        <ele>116</ele>
        <time>2018-04-17T16:20:33Z</time>
      </trkpt>
      <trkpt lat="47.17167" lon="2.16055">
        <ele>117</ele>
        <time>2018-04-17T16:20:35Z</time>
      </trkpt>
      <trkpt lat="47.17182" lon="2.16039">
        <ele>117</ele>
        <time>2018-04-17T16:20:39Z</time>
      </trkpt>
      <trkpt lat="47.17198" lon="2.16021">
        <ele>117</ele>
        <time>2018-04-17T16:20:43Z</time>
      </trkpt>
      <trkpt lat="47.1722" lon="2.15994">
        <ele>118</ele>
        <time>2018-04-17T16:20:49Z</time>
      </trkpt>
      <trkpt lat="47.17235" lon="2.15977">
        <ele>118</ele>
        <time>2018-04-17T16:20:53Z</time>
      </trkpt>
      <trkpt lat="47.17249" lon="2.15959">
        <ele>118</ele>
        <time>2018-04-17T16:20:57Z</time>
      </trkpt>
      <trkpt lat="47.17256" lon="2.1595">
        <ele>119</ele>
        <time>2018-04-17T16:20:59Z</time>
      </trkpt>
      <trkpt lat="47.17289" lon="2.15907">
        <ele>121</ele>
        <time>2018-04-17T16:21:09Z</time>
      </trkpt>
      <trkpt lat="47.17296" lon="2.15899">
        <ele>121</ele>
        <time>2018-04-17T16:21:11Z</time>
      </trkpt>
      <trkpt lat="47.17314" lon="2.15877">
        <ele>122</ele>
        <time>2018-04-17T16:21:17Z</time>
      </trkpt>
      <trkpt lat="47.17317" lon="2.15874">
        <ele>122</ele>
        <time>2018-04-17T16:21:18Z</time>
      </trkpt>
      <trkpt lat="47.17333" lon="2.15852">
        <ele>123</ele>
        <time>2018-04-17T16:21:25Z</time>
      </trkpt>
      <trkpt lat="47.17346" lon="2.15837">
        <ele>125</ele>
        <time>2018-04-17T16:21:31Z</time>
      </trkpt>
      <trkpt lat="47.17355" lon="2.15832">
        <ele>124</ele>
        <time>2018-04-17T16:21:37Z</time>
      </trkpt>
      <trkpt lat="47.17355" lon="2.1583">
        <ele>124</ele>
        <time>2018-04-17T16:21:38Z</time>
      </trkpt>
      <trkpt lat="47.17357" lon="2.15824">
        <ele>124</ele>
        <time>2018-04-17T16:21:41Z</time>
      </trkpt>
      <trkpt lat="47.17357" lon="2.15824">
        <ele>124</ele>
        <time>2018-04-17T16:21:45Z</time>
      </trkpt>
      <trkpt lat="47.17358" lon="2.15821">
        <ele>124</ele>
        <time>2018-04-17T16:21:56Z</time>
      </trkpt>
      <trkpt lat="47.17359" lon="2.15821">
        <ele>124</ele>
        <time>2018-04-17T16:22:01Z</time>
      </trkpt>
      <trkpt lat="47.17359" lon="2.15821">
        <ele>124</ele>
        <time>2018-04-17T16:22:08Z</time>
      </trkpt>
      <trkpt lat="47.17359" lon="2.15821">
        <ele>124</ele>
        <time>2018-04-17T16:22:25Z</time>
      </trkpt>
      <trkpt lat="47.17359" lon="2.15821">
        <ele>124</ele>
        <time>2018-04-17T16:22:40Z</time>
      </trkpt>
      <trkpt lat="47.17359" lon="2.15821">
        <ele>124</ele>
        <time>2018-04-17T16:23:02Z</time>
      </trkpt>
      <trkpt lat="47.17359" lon="2.15821">
        <ele>124</ele>
        <time>2018-04-17T16:23:17Z</time>
      </trkpt>
      <trkpt lat="47.17359" lon="2.15821">
        <ele>124</ele>
        <time>2018-04-17T16:23:30Z</time>
      </trkpt>
      <trkpt lat="47.17359" lon="2.15821">
        <ele>124</ele>
        <time>2018-04-17T16:23:50Z</time>
      </trkpt>
      <trkpt lat="47.17359" lon="2.15821">
        <ele>124</ele>
        <time>2018-04-17T16:24:02Z</time>
      </trkpt>
      <trkpt lat="47.17359" lon="2.15821">
        <ele>124</ele>
        <time>2018-04-17T16:24:16Z</time>
      </trkpt>
      <trkpt lat="47.17359" lon="2.15821">
        <ele>124</ele>
        <time>2018-04-17T16:24:19Z</time>
      </trkpt>
      <trkpt lat="47.17366" lon="2.15818">
        <ele>124</ele>
        <time>2018-04-17T16:24:22Z</time>
      </trkpt>
      <trkpt lat="47.17381" lon="2.15807">
        <ele>123</ele>
        <time>2018-04-17T16:24:26Z</time>
      </trkpt>
      <trkpt lat="47.17411" lon="2.15781">
        <ele>123</ele>
        <time>2018-04-17T16:24:34Z</time>
      </trkpt>
      <trkpt lat="47.17444" lon="2.15754">
        <ele>122</ele>
        <time>2018-04-17T16:24:42Z</time>
      </trkpt>
      <trkpt lat="47.1748" lon="2.15725">
        <ele>123</ele>
        <time>2018-04-17T16:24:50Z</time>
      </trkpt>
      <trkpt lat="47.17511" lon="2.15697">
        <ele>122</ele>
        <time>2018-04-17T16:24:57Z</time>
      </trkpt>
      <trkpt lat="47.17551" lon="2.15663">
        <ele>121</ele>
        <time>2018-04-17T16:25:06Z</time>
      </trkpt>
      <trkpt lat="47.1756" lon="2.15655">
        <ele>121</ele>
        <time>2018-04-17T16:25:08Z</time>
      </trkpt>
      <trkpt lat="47.1759" lon="2.15628">
        <ele>120</ele>
        <time>2018-04-17T16:25:15Z</time>
      </trkpt>
      <trkpt lat="47.17615" lon="2.15606">
        <ele>120</ele>
        <time>2018-04-17T16:25:21Z</time>
      </trkpt>
      <trkpt lat="47.1762" lon="2.15602">
        <ele>120</ele>
        <time>2018-04-17T16:25:22Z</time>
      </trkpt>
      <trkpt lat="47.17656" lon="2.1557">
        <ele>119</ele>
        <time>2018-04-17T16:25:31Z</time>
      </trkpt>
      <trkpt lat="47.17665" lon="2.15563">
        <ele>120</ele>
        <time>2018-04-17T16:25:33Z</time>
      </trkpt>
      <trkpt lat="47.17701" lon="2.15533">
        <ele>119</ele>
        <time>2018-04-17T16:25:41Z</time>
      </trkpt>
      <trkpt lat="47.17706" lon="2.15529">
        <ele>119</ele>
        <time>2018-04-17T16:25:42Z</time>
      </trkpt>
      <trkpt lat="47.17736" lon="2.15506">
        <ele>118</ele>
        <time>2018-04-17T16:25:48Z</time>
      </trkpt>
      <trkpt lat="47.17747" lon="2.15499">
        <ele>118</ele>
        <time>2018-04-17T16:25:50Z</time>
      </trkpt>
      <trkpt lat="47.1778" lon="2.15477">
        <ele>117</ele>
        <time>2018-04-17T16:25:56Z</time>
      </trkpt>
      <trkpt lat="47.17784" lon="2.15473">
        <ele>117</ele>
        <time>2018-04-17T16:25:57Z</time>
      </trkpt>
      <trkpt lat="47.178" lon="2.15462">
        <ele>117</ele>
        <time>2018-04-17T16:26:02Z</time>
      </trkpt>
      <trkpt lat="47.17811" lon="2.15458">
        <ele>116</ele>
        <time>2018-04-17T16:26:07Z</time>
      </trkpt>
      <trkpt lat="47.17821" lon="2.15445">
        <ele>116</ele>
        <time>2018-04-17T16:26:12Z</time>
      </trkpt>
      <trkpt lat="47.17837" lon="2.15434">
        <ele>116</ele>
        <time>2018-04-17T16:26:17Z</time>
      </trkpt>
      <trkpt lat="47.17845" lon="2.15427">
        <ele>116</ele>
        <time>2018-04-17T16:26:19Z</time>
      </trkpt>
      <trkpt lat="47.17882" lon="2.15398">
        <ele>115</ele>
        <time>2018-04-17T16:26:27Z</time>
      </trkpt>
      <trkpt lat="47.17911" lon="2.15377">
        <ele>115</ele>
        <time>2018-04-17T16:26:34Z</time>
      </trkpt>
      <trkpt lat="47.17915" lon="2.15374">
        <ele>115</ele>
        <time>2018-04-17T16:26:35Z</time>
      </trkpt>
      <trkpt lat="47.17948" lon="2.1535">
        <ele>115</ele>
        <time>2018-04-17T16:26:43Z</time>
      </trkpt>
      <trkpt lat="47.17982" lon="2.15324">
        <ele>114</ele>
        <time>2018-04-17T16:26:51Z</time>
      </trkpt>
      <trkpt lat="47.18019" lon="2.15297">
        <ele>115</ele>
        <time>2018-04-17T16:27:00Z</time>
      </trkpt>
      <trkpt lat="47.18052" lon="2.15272">
        <ele>115</ele>
        <time>2018-04-17T16:27:08Z</time>
      </trkpt>
      <trkpt lat="47.18092" lon="2.15241">
        <ele>115</ele>
        <time>2018-04-17T16:27:18Z</time>
      </trkpt>
      <trkpt lat="47.18121" lon="2.15218">
        <ele>115</ele>
        <time>2018-04-17T16:27:25Z</time>
      </trkpt>
      <trkpt lat="47.18156" lon="2.15182">
        <ele>115</ele>
        <time>2018-04-17T16:27:34Z</time>
      </trkpt>
      <trkpt lat="47.18177" lon="2.15164">
        <ele>115</ele>
        <time>2018-04-17T16:27:41Z</time>
      </trkpt>
      <trkpt lat="47.18192" lon="2.15152">
        <ele>115</ele>
        <time>2018-04-17T16:27:48Z</time>
      </trkpt>
      <trkpt lat="47.18196" lon="2.15149">
        <ele>115</ele>
        <time>2018-04-17T16:27:51Z</time>
      </trkpt>
      <trkpt lat="47.18196" lon="2.15149">
        <ele>115</ele>
        <time>2018-04-17T16:27:52Z</time>
      </trkpt>
      <trkpt lat="47.18197" lon="2.15149">
        <ele>115</ele>
        <time>2018-04-17T16:27:58Z</time>
      </trkpt>
      <trkpt lat="47.18197" lon="2.15149">
        <ele>115</ele>
        <time>2018-04-17T16:28:10Z</time>
      </trkpt>
      <trkpt lat="47.18196" lon="2.15149">
        <ele>115</ele>
        <time>2018-04-17T16:28:16Z</time>
      </trkpt>
      <trkpt lat="47.18196" lon="2.15148">
        <ele>115</ele>
        <time>2018-04-17T16:28:19Z</time>
      </trkpt>
      <trkpt lat="47.182" lon="2.15141">
        <ele>115</ele>
        <time>2018-04-17T16:28:22Z</time>
      </trkpt>
      <trkpt lat="47.18213" lon="2.15123">
        <ele>115</ele>
        <time>2018-04-17T16:28:27Z</time>
      </trkpt>
      <trkpt lat="47.18236" lon="2.15093">
        <ele>116</ele>
        <time>2018-04-17T16:28:35Z</time>
      </trkpt>
      <trkpt lat="47.18258" lon="2.15064">
        <ele>115</ele>
        <time>2018-04-17T16:28:42Z</time>
      </trkpt>
      <trkpt lat="47.18265" lon="2.15056">
        <ele>115</ele>
        <time>2018-04-17T16:28:44Z</time>
      </trkpt>
      <trkpt lat="47.183" lon="2.1502">
        <ele>115</ele>
        <time>2018-04-17T16:28:54Z</time>
      </trkpt>
      <trkpt lat="47.1833" lon="2.14987">
        <ele>115</ele>
        <time>2018-04-17T16:29:03Z</time>
      </trkpt>
      <trkpt lat="47.18353" lon="2.14956">
        <ele>115</ele>
        <time>2018-04-17T16:29:10Z</time>
      </trkpt>
      <trkpt lat="47.18365" lon="2.14939">
        <ele>115</ele>
        <time>2018-04-17T16:29:14Z</time>
      </trkpt>
      <trkpt lat="47.18377" lon="2.1492">
        <ele>115</ele>
        <time>2018-04-17T16:29:18Z</time>
      </trkpt>
      <trkpt lat="47.18407" lon="2.14855">
        <ele>116</ele>
        <time>2018-04-17T16:29:30Z</time>
      </trkpt>
      <trkpt lat="47.18425" lon="2.14818">
        <ele>117</ele>
        <time>2018-04-17T16:29:37Z</time>
      </trkpt>
      <trkpt lat="47.1843" lon="2.14808">
        <ele>117</ele>
        <time>2018-04-17T16:29:39Z</time>
      </trkpt>
      <trkpt lat="47.18444" lon="2.14782">
        <ele>117</ele>
        <time>2018-04-17T16:29:44Z</time>
      </trkpt>
      <trkpt lat="47.18465" lon="2.14733">
        <ele>118</ele>
        <time>2018-04-17T16:29:52Z</time>
      </trkpt>
      <trkpt lat="47.18478" lon="2.14705">
        <ele>118</ele>
        <time>2018-04-17T16:29:57Z</time>
      </trkpt>
      <trkpt lat="47.18484" lon="2.14694">
        <ele>118</ele>
        <time>2018-04-17T16:29:59Z</time>
      </trkpt>
      <trkpt lat="47.18495" lon="2.14672">
        <ele>118</ele>
        <time>2018-04-17T16:30:03Z</time>
      </trkpt>
      <trkpt lat="47.18507" lon="2.14652">
        <ele>119</ele>
        <time>2018-04-17T16:30:07Z</time>
      </trkpt>
      <trkpt lat="47.18523" lon="2.14626">
        <ele>119</ele>
        <time>2018-04-17T16:30:12Z</time>
      </trkpt>
      <trkpt lat="47.18538" lon="2.146">
        <ele>120</ele>
        <time>2018-04-17T16:30:17Z</time>
      </trkpt>
      <trkpt lat="47.18564" lon="2.14554">
        <ele>120</ele>
        <time>2018-04-17T16:30:25Z</time>
      </trkpt>
      <trkpt lat="47.18581" lon="2.14522">
        <ele>119</ele>
        <time>2018-04-17T16:30:30Z</time>
      </trkpt>
      <trkpt lat="47.18588" lon="2.1451">
        <ele>119</ele>
        <time>2018-04-17T16:30:32Z</time>
      </trkpt>
      <trkpt lat="47.18623" lon="2.14446">
        <ele>117</ele>
        <time>2018-04-17T16:30:42Z</time>
      </trkpt>
      <trkpt lat="47.18626" lon="2.1444">
        <ele>117</ele>
        <time>2018-04-17T16:30:43Z</time>
      </trkpt>
      <trkpt lat="47.18636" lon="2.1442">
        <ele>117</ele>
        <time>2018-04-17T16:30:46Z</time>
      </trkpt>
      <trkpt lat="47.18649" lon="2.14394">
        <ele>116</ele>
        <time>2018-04-17T16:30:50Z</time>
      </trkpt>
      <trkpt lat="47.18677" lon="2.14332">
        <ele>116</ele>
        <time>2018-04-17T16:30:59Z</time>
      </trkpt>
      <trkpt lat="47.18687" lon="2.14311">
        <ele>116</ele>
        <time>2018-04-17T16:31:02Z</time>
      </trkpt>
      <trkpt lat="47.18703" lon="2.14277">
        <ele>115</ele>
        <time>2018-04-17T16:31:07Z</time>
      </trkpt>
      <trkpt lat="47.18728" lon="2.14226">
        <ele>116</ele>
        <time>2018-04-17T16:31:15Z</time>
      </trkpt>
      <trkpt lat="47.18739" lon="2.14201">
        <ele>116</ele>
        <time>2018-04-17T16:31:19Z</time>
      </trkpt>
      <trkpt lat="47.18757" lon="2.14154">
        <ele>116</ele>
        <time>2018-04-17T16:31:26Z</time>
      </trkpt>
      <trkpt lat="47.18777" lon="2.14096">
        <ele>117</ele>
        <time>2018-04-17T16:31:35Z</time>
      </trkpt>
      <trkpt lat="47.18795" lon="2.14045">
        <ele>118</ele>
        <time>2018-04-17T16:31:43Z</time>
      </trkpt>
      <trkpt lat="47.18797" lon="2.14039">
        <ele>118</ele>
        <time>2018-04-17T16:31:44Z</time>
      </trkpt>
      <trkpt lat="47.1881" lon="2.14">
        <ele>119</ele>
        <time>2018-04-17T16:31:51Z</time>
      </trkpt>
      <trkpt lat="47.18822" lon="2.13961">
        <ele>120</ele>
        <time>2018-04-17T16:31:57Z</time>
      </trkpt>
      <trkpt lat="47.18837" lon="2.13919">
        <ele>118</ele>
        <time>2018-04-17T16:32:03Z</time>
      </trkpt>
      <trkpt lat="47.18856" lon="2.13867">
        <ele>116</ele>
        <time>2018-04-17T16:32:11Z</time>
      </trkpt>
      <trkpt lat="47.18881" lon="2.13809">
        <ele>115</ele>
        <time>2018-04-17T16:32:20Z</time>
      </trkpt>
      <trkpt lat="47.18902" lon="2.1377">
        <ele>114</ele>
        <time>2018-04-17T16:32:26Z</time>
      </trkpt>
      <trkpt lat="47.1891" lon="2.13757">
        <ele>114</ele>
        <time>2018-04-17T16:32:28Z</time>
      </trkpt>
      <trkpt lat="47.18926" lon="2.1373">
        <ele>115</ele>
        <time>2018-04-17T16:32:32Z</time>
      </trkpt>
      <trkpt lat="47.18946" lon="2.13694">
        <ele>115</ele>
        <time>2018-04-17T16:32:37Z</time>
      </trkpt>
      <trkpt lat="47.18962" lon="2.13655">
        <ele>116</ele>
        <time>2018-04-17T16:32:42Z</time>
      </trkpt>
      <trkpt lat="47.18964" lon="2.13647">
        <ele>116</ele>
        <time>2018-04-17T16:32:43Z</time>
      </trkpt>
      <trkpt lat="47.18984" lon="2.1358">
        <ele>116</ele>
        <time>2018-04-17T16:32:52Z</time>
      </trkpt>
      <trkpt lat="47.18992" lon="2.13553">
        <ele>116</ele>
        <time>2018-04-17T16:32:56Z</time>
      </trkpt>
      <trkpt lat="47.19002" lon="2.1352">
        <ele>116</ele>
        <time>2018-04-17T16:33:01Z</time>
      </trkpt>
      <trkpt lat="47.19005" lon="2.13514">
        <ele>116</ele>
        <time>2018-04-17T16:33:02Z</time>
      </trkpt>
      <trkpt lat="47.19021" lon="2.13472">
        <ele>117</ele>
        <time>2018-04-17T16:33:09Z</time>
      </trkpt>
      <trkpt lat="47.19036" lon="2.13429">
        <ele>118</ele>
        <time>2018-04-17T16:33:16Z</time>
      </trkpt>
      <trkpt lat="47.19043" lon="2.13411">
        <ele>120</ele>
        <time>2018-04-17T16:33:19Z</time>
      </trkpt>
      <trkpt lat="47.19062" lon="2.13373">
        <ele>120</ele>
        <time>2018-04-17T16:33:26Z</time>
      </trkpt>
      <trkpt lat="47.19067" lon="2.13362">
        <ele>120</ele>
        <time>2018-04-17T16:33:28Z</time>
      </trkpt>
      <trkpt lat="47.19084" lon="2.1333">
        <ele>121</ele>
        <time>2018-04-17T16:33:34Z</time>
      </trkpt>
      <trkpt lat="47.19103" lon="2.13282">
        <ele>120</ele>
        <time>2018-04-17T16:33:42Z</time>
      </trkpt>
      <trkpt lat="47.19119" lon="2.13242">
        <ele>119</ele>
        <time>2018-04-17T16:33:49Z</time>
      </trkpt>
      <trkpt lat="47.19122" lon="2.13237">
        <ele>119</ele>
        <time>2018-04-17T16:33:50Z</time>
      </trkpt>
      <trkpt lat="47.19132" lon="2.13225">
        <ele>119</ele>
        <time>2018-04-17T16:33:53Z</time>
      </trkpt>
      <trkpt lat="47.19142" lon="2.13214">
        <ele>119</ele>
        <time>2018-04-17T16:33:56Z</time>
      </trkpt>
      <trkpt lat="47.19168" lon="2.13187">
        <ele>119</ele>
        <time>2018-04-17T16:34:03Z</time>
      </trkpt>
      <trkpt lat="47.19186" lon="2.13155">
        <ele>119</ele>
        <time>2018-04-17T16:34:09Z</time>
      </trkpt>
      <trkpt lat="47.19196" lon="2.13123">
        <ele>119</ele>
        <time>2018-04-17T16:34:14Z</time>
      </trkpt>
      <trkpt lat="47.19197" lon="2.13116">
        <ele>118</ele>
        <time>2018-04-17T16:34:15Z</time>
      </trkpt>
      <trkpt lat="47.19204" lon="2.13081">
        <ele>118</ele>
        <time>2018-04-17T16:34:21Z</time>
      </trkpt>
      <trkpt lat="47.19218" lon="2.13047">
        <ele>118</ele>
        <time>2018-04-17T16:34:27Z</time>
      </trkpt>
      <trkpt lat="47.19221" lon="2.13041">
        <ele>118</ele>
        <time>2018-04-17T16:34:28Z</time>
      </trkpt>
      <trkpt lat="47.19243" lon="2.13011">
        <ele>118</ele>
        <time>2018-04-17T16:34:35Z</time>
      </trkpt>
      <trkpt lat="47.19246" lon="2.13009">
        <ele>118</ele>
        <time>2018-04-17T16:34:39Z</time>
      </trkpt>
      <trkpt lat="47.19247" lon="2.13008">
        <ele>118</ele>
        <time>2018-04-17T16:34:51Z</time>
      </trkpt>
      <trkpt lat="47.19247" lon="2.13008">
        <ele>118</ele>
        <time>2018-04-17T16:35:08Z</time>
      </trkpt>
      <trkpt lat="47.19247" lon="2.13006">
        <ele>118</ele>
        <time>2018-04-17T16:35:15Z</time>
      </trkpt>
      <trkpt lat="47.19254" lon="2.12995">
        <ele>118</ele>
        <time>2018-04-17T16:35:19Z</time>
      </trkpt>
      <trkpt lat="47.19266" lon="2.12978">
        <ele>117</ele>
        <time>2018-04-17T16:35:23Z</time>
      </trkpt>
      <trkpt lat="47.19269" lon="2.12973">
        <ele>117</ele>
        <time>2018-04-17T16:35:24Z</time>
      </trkpt>
      <trkpt lat="47.19291" lon="2.12939">
        <ele>116</ele>
        <time>2018-04-17T16:35:30Z</time>
      </trkpt>
      <trkpt lat="47.19296" lon="2.12934">
        <ele>116</ele>
        <time>2018-04-17T16:35:31Z</time>
      </trkpt>
      <trkpt lat="47.19322" lon="2.12895">
        <ele>116</ele>
        <time>2018-04-17T16:35:37Z</time>
      </trkpt>
      <trkpt lat="47.19332" lon="2.1288">
        <ele>115</ele>
        <time>2018-04-17T16:35:39Z</time>
      </trkpt>
      <trkpt lat="47.19343" lon="2.12865">
        <ele>113</ele>
        <time>2018-04-17T16:35:41Z</time>
      </trkpt>
      <trkpt lat="47.19359" lon="2.12842">
        <ele>113</ele>
        <time>2018-04-17T16:35:44Z</time>
      </trkpt>
      <trkpt lat="47.19376" lon="2.12818">
        <ele>112</ele>
        <time>2018-04-17T16:35:47Z</time>
      </trkpt>
      <trkpt lat="47.19398" lon="2.12785">
        <ele>111</ele>
        <time>2018-04-17T16:35:51Z</time>
      </trkpt>
      <trkpt lat="47.19404" lon="2.12777">
        <ele>111</ele>
        <time>2018-04-17T16:35:52Z</time>
      </trkpt>
      <trkpt lat="47.19446" lon="2.12719">
        <ele>108</ele>
        <time>2018-04-17T16:35:59Z</time>
      </trkpt>
      <trkpt lat="47.19451" lon="2.12711">
        <ele>108</ele>
        <time>2018-04-17T16:36:00Z</time>
      </trkpt>
      <trkpt lat="47.19463" lon="2.12694">
        <ele>108</ele>
        <time>2018-04-17T16:36:02Z</time>
      </trkpt>
      <trkpt lat="47.19486" lon="2.12659">
        <ele>106</ele>
        <time>2018-04-17T16:36:06Z</time>
      </trkpt>
      <trkpt lat="47.19504" lon="2.12633">
        <ele>104</ele>
        <time>2018-04-17T16:36:09Z</time>
      </trkpt>
      <trkpt lat="47.19544" lon="2.12575">
        <ele>105</ele>
        <time>2018-04-17T16:36:16Z</time>
      </trkpt>
      <trkpt lat="47.19555" lon="2.12559">
        <ele>105</ele>
        <time>2018-04-17T16:36:18Z</time>
      </trkpt>
      <trkpt lat="47.1956" lon="2.12552">
        <ele>105</ele>
        <time>2018-04-17T16:36:19Z</time>
      </trkpt>
      <trkpt lat="47.19593" lon="2.12502">
        <ele>105</ele>
        <time>2018-04-17T16:36:26Z</time>
      </trkpt>
      <trkpt lat="47.19624" lon="2.12457">
        <ele>106</ele>
        <time>2018-04-17T16:36:33Z</time>
      </trkpt>
      <trkpt lat="47.19664" lon="2.124">
        <ele>107</ele>
        <time>2018-04-17T16:36:42Z</time>
      </trkpt>
      <trkpt lat="47.19692" lon="2.12361">
        <ele>109</ele>
        <time>2018-04-17T16:36:49Z</time>
      </trkpt>
      <trkpt lat="47.19708" lon="2.1234">
        <ele>109</ele>
        <time>2018-04-17T16:36:53Z</time>
      </trkpt>
      <trkpt lat="47.19723" lon="2.12319">
        <ele>111</ele>
        <time>2018-04-17T16:36:57Z</time>
      </trkpt>
      <trkpt lat="47.19726" lon="2.12314">
        <ele>111</ele>
        <time>2018-04-17T16:36:58Z</time>
      </trkpt>
      <trkpt lat="47.19752" lon="2.12277">
        <ele>112</ele>
        <time>2018-04-17T16:37:05Z</time>
      </trkpt>
      <trkpt lat="47.19756" lon="2.12271">
        <ele>112</ele>
        <time>2018-04-17T16:37:06Z</time>
      </trkpt>
      <trkpt lat="47.19788" lon="2.12225">
        <ele>112</ele>
        <time>2018-04-17T16:37:14Z</time>
      </trkpt>
      <trkpt lat="47.19828" lon="2.12166">
        <ele>111</ele>
        <time>2018-04-17T16:37:24Z</time>
      </trkpt>
      <trkpt lat="47.19832" lon="2.1216">
        <ele>111</ele>
        <time>2018-04-17T16:37:25Z</time>
      </trkpt>
      <trkpt lat="47.19844" lon="2.12142">
        <ele>110</ele>
        <time>2018-04-17T16:37:28Z</time>
      </trkpt>
      <trkpt lat="47.19872" lon="2.12102">
        <ele>110</ele>
        <time>2018-04-17T16:37:35Z</time>
      </trkpt>
      <trkpt lat="47.19896" lon="2.12068">
        <ele>110</ele>
        <time>2018-04-17T16:37:41Z</time>
      </trkpt>
      <trkpt lat="47.19904" lon="2.12057">
        <ele>110</ele>
        <time>2018-04-17T16:37:43Z</time>
      </trkpt>
      <trkpt lat="47.19937" lon="2.12023">
        <ele>112</ele>
        <time>2018-04-17T16:37:50Z</time>
      </trkpt>
      <trkpt lat="47.19941" lon="2.12018">
        <ele>112</ele>
        <time>2018-04-17T16:37:51Z</time>
      </trkpt>
      <trkpt lat="47.19968" lon="2.11984">
        <ele>112</ele>
        <time>2018-04-17T16:37:57Z</time>
      </trkpt>
      <trkpt lat="47.19981" lon="2.11966">
        <ele>112</ele>
        <time>2018-04-17T16:38:00Z</time>
      </trkpt>
      <trkpt lat="47.19998" lon="2.11929">
        <ele>112</ele>
        <time>2018-04-17T16:38:05Z</time>
      </trkpt>
      <trkpt lat="47.20004" lon="2.11913">
        <ele>110</ele>
        <time>2018-04-17T16:38:07Z</time>
      </trkpt>
      <trkpt lat="47.20017" lon="2.1187">
        <ele>108</ele>
        <time>2018-04-17T16:38:12Z</time>
      </trkpt>
      <trkpt lat="47.20026" lon="2.11843">
        <ele>108</ele>
        <time>2018-04-17T16:38:15Z</time>
      </trkpt>
      <trkpt lat="47.20038" lon="2.11807">
        <ele>108</ele>
        <time>2018-04-17T16:38:19Z</time>
      </trkpt>
      <trkpt lat="47.20044" lon="2.1179">
        <ele>107</ele>
        <time>2018-04-17T16:38:21Z</time>
      </trkpt>
      <trkpt lat="47.20052" lon="2.11772">
        <ele>107</ele>
        <time>2018-04-17T16:38:23Z</time>
      </trkpt>
      <trkpt lat="47.20069" lon="2.11726">
        <ele>107</ele>
        <time>2018-04-17T16:38:28Z</time>
      </trkpt>
      <trkpt lat="47.20075" lon="2.11707">
        <ele>107</ele>
        <time>2018-04-17T16:38:30Z</time>
      </trkpt>
      <trkpt lat="47.20079" lon="2.11696">
        <ele>107</ele>
        <time>2018-04-17T16:38:31Z</time>
      </trkpt>
      <trkpt lat="47.20085" lon="2.11676">
        <ele>106</ele>
        <time>2018-04-17T16:38:33Z</time>
      </trkpt>
      <trkpt lat="47.2011" lon="2.11609">
        <ele>104</ele>
        <time>2018-04-17T16:38:40Z</time>
      </trkpt>
      <trkpt lat="47.20126" lon="2.11576">
        <ele>103</ele>
        <time>2018-04-17T16:38:44Z</time>
      </trkpt>
      <trkpt lat="47.20138" lon="2.11553">
        <ele>103</ele>
        <time>2018-04-17T16:38:47Z</time>
      </trkpt>
      <trkpt lat="47.2016" lon="2.11512">
        <ele>103</ele>
        <time>2018-04-17T16:38:53Z</time>
      </trkpt>
      <trkpt lat="47.20164" lon="2.11507">
        <ele>103</ele>
        <time>2018-04-17T16:38:54Z</time>
      </trkpt>
      <trkpt lat="47.20178" lon="2.11483">
        <ele>103</ele>
        <time>2018-04-17T16:38:58Z</time>
      </trkpt>
      <trkpt lat="47.20214" lon="2.1142">
        <ele>103</ele>
        <time>2018-04-17T16:39:08Z</time>
      </trkpt>
      <trkpt lat="47.20217" lon="2.11413">
        <ele>103</ele>
        <time>2018-04-17T16:39:09Z</time>
      </trkpt>
      <trkpt lat="47.20246" lon="2.1136">
        <ele>103</ele>
        <time>2018-04-17T16:39:17Z</time>
      </trkpt>
      <trkpt lat="47.20257" lon="2.11342">
        <ele>102</ele>
        <time>2018-04-17T16:39:20Z</time>
      </trkpt>
      <trkpt lat="47.20274" lon="2.11312">
        <ele>103</ele>
        <time>2018-04-17T16:39:25Z</time>
      </trkpt>
      <trkpt lat="47.20296" lon="2.11276">
        <ele>103</ele>
        <time>2018-04-17T16:39:31Z</time>
      </trkpt>
      <trkpt lat="47.20325" lon="2.11224">
        <ele>104</ele>
        <time>2018-04-17T16:39:39Z</time>
      </trkpt>
      <trkpt lat="47.20361" lon="2.11163">
        <ele>104</ele>
        <time>2018-04-17T16:39:49Z</time>
      </trkpt>
      <trkpt lat="47.20393" lon="2.11114">
        <ele>103</ele>
        <time>2018-04-17T16:39:58Z</time>
      </trkpt>
      <trkpt lat="47.20429" lon="2.11058">
        <ele>102</ele>
        <time>2018-04-17T16:40:08Z</time>
      </trkpt>
      <trkpt lat="47.20463" lon="2.11009">
        <ele>103</ele>
        <time>2018-04-17T16:40:17Z</time>
      </trkpt>
      <trkpt lat="47.20498" lon="2.10959">
        <ele>103</ele>
        <time>2018-04-17T16:40:26Z</time>
      </trkpt>
      <trkpt lat="47.20525" lon="2.10919">
        <ele>103</ele>
        <time>2018-04-17T16:40:33Z</time>
      </trkpt>
      <trkpt lat="47.20563" lon="2.10861">
        <ele>102</ele>
        <time>2018-04-17T16:40:43Z</time>
      </trkpt>
      <trkpt lat="47.2058" lon="2.10822">
        <ele>102</ele>
        <time>2018-04-17T16:40:49Z</time>
      </trkpt>
      <trkpt lat="47.20592" lon="2.108">
        <ele>103</ele>
        <time>2018-04-17T16:40:53Z</time>
      </trkpt>
      <trkpt lat="47.20599" lon="2.10793">
        <ele>103</ele>
        <time>2018-04-17T16:40:55Z</time>
      </trkpt>
      <trkpt lat="47.20615" lon="2.1079">
        <ele>103</ele>
        <time>2018-04-17T16:40:59Z</time>
      </trkpt>
      <trkpt lat="47.20629" lon="2.10794">
        <ele>103</ele>
        <time>2018-04-17T16:41:03Z</time>
      </trkpt>
      <trkpt lat="47.20633" lon="2.10793">
        <ele>103</ele>
        <time>2018-04-17T16:41:04Z</time>
      </trkpt>
      <trkpt lat="47.20648" lon="2.10783">
        <ele>103</ele>
        <time>2018-04-17T16:41:08Z</time>
      </trkpt>
      <trkpt lat="47.20654" lon="2.10774">
        <ele>103</ele>
        <time>2018-04-17T16:41:10Z</time>
      </trkpt>
      <trkpt lat="47.20663" lon="2.10757">
        <ele>103</ele>
        <time>2018-04-17T16:41:13Z</time>
      </trkpt>
      <trkpt lat="47.20666" lon="2.10751">
        <ele>103</ele>
        <time>2018-04-17T16:41:14Z</time>
      </trkpt>
      <trkpt lat="47.2067" lon="2.10738">
        <ele>103</ele>
        <time>2018-04-17T16:41:16Z</time>
      </trkpt>
      <trkpt lat="47.20687" lon="2.10693">
        <ele>104</ele>
        <time>2018-04-17T16:41:23Z</time>
      </trkpt>
      <trkpt lat="47.20705" lon="2.10661">
        <ele>104</ele>
        <time>2018-04-17T16:41:30Z</time>
      </trkpt>
      <trkpt lat="47.20716" lon="2.10654">
        <ele>103</ele>
        <time>2018-04-17T16:41:35Z</time>
      </trkpt>
      <trkpt lat="47.20716" lon="2.10655">
        <ele>103</ele>
        <time>2018-04-17T16:41:39Z</time>
      </trkpt>
      <trkpt lat="47.20716" lon="2.10655">
        <ele>103</ele>
        <time>2018-04-17T16:41:49Z</time>
      </trkpt>
      <trkpt lat="47.20716" lon="2.10655">
        <ele>103</ele>
        <time>2018-04-17T16:42:00Z</time>
      </trkpt>
      <trkpt lat="47.20716" lon="2.10655">
        <ele>103</ele>
        <time>2018-04-17T16:42:14Z</time>
      </trkpt>
      <trkpt lat="47.20715" lon="2.10655">
        <ele>103</ele>
        <time>2018-04-17T16:42:26Z</time>
      </trkpt>
      <trkpt lat="47.20715" lon="2.10655">
        <ele>103</ele>
        <time>2018-04-17T16:42:38Z</time>
      </trkpt>
      <trkpt lat="47.20715" lon="2.10655">
        <ele>103</ele>
        <time>2018-04-17T16:42:51Z</time>
      </trkpt>
      <trkpt lat="47.20725" lon="2.10657">
        <ele>104</ele>
        <time>2018-04-17T16:42:56Z</time>
      </trkpt>
      <trkpt lat="47.20728" lon="2.10653">
        <ele>104</ele>
        <time>2018-04-17T16:42:57Z</time>
      </trkpt>
      <trkpt lat="47.20733" lon="2.10642">
        <ele>103</ele>
        <time>2018-04-17T16:42:59Z</time>
      </trkpt>
      <trkpt lat="47.20744" lon="2.10615">
        <ele>103</ele>
        <time>2018-04-17T16:43:03Z</time>
      </trkpt>
      <trkpt lat="47.20749" lon="2.10601">
        <ele>103</ele>
        <time>2018-04-17T16:43:05Z</time>
      </trkpt>
      <trkpt lat="47.20771" lon="2.10556">
        <ele>102</ele>
        <time>2018-04-17T16:43:12Z</time>
      </trkpt>
      <trkpt lat="47.20807" lon="2.10492">
        <ele>102</ele>
        <time>2018-04-17T16:43:22Z</time>
      </trkpt>
      <trkpt lat="47.20811" lon="2.10486">
        <ele>102</ele>
        <time>2018-04-17T16:43:23Z</time>
      </trkpt>
      <trkpt lat="47.20837" lon="2.10442">
        <ele>102</ele>
        <time>2018-04-17T16:43:30Z</time>
      </trkpt>
      <trkpt lat="47.20868" lon="2.10391">
        <ele>101</ele>
        <time>2018-04-17T16:43:38Z</time>
      </trkpt>
      <trkpt lat="47.20896" lon="2.10342">
        <ele>102</ele>
        <time>2018-04-17T16:43:46Z</time>
      </trkpt>
      <trkpt lat="47.20921" lon="2.10299">
        <ele>102</ele>
        <time>2018-04-17T16:43:54Z</time>
      </trkpt>
      <trkpt lat="47.20951" lon="2.10248">
        <ele>101</ele>
        <time>2018-04-17T16:44:03Z</time>
      </trkpt>
      <trkpt lat="47.20986" lon="2.10189">
        <ele>101</ele>
        <time>2018-04-17T16:44:13Z</time>
      </trkpt>
      <trkpt lat="47.21016" lon="2.10147">
        <ele>101</ele>
        <time>2018-04-17T16:44:21Z</time>
      </trkpt>
      <trkpt lat="47.2102" lon="2.10143">
        <ele>101</ele>
        <time>2018-04-17T16:44:22Z</time>
      </trkpt>
      <trkpt lat="47.21034" lon="2.10134">
        <ele>101</ele>
        <time>2018-04-17T16:44:25Z</time>
      </trkpt>
      <trkpt lat="47.21047" lon="2.10127">
        <ele>101</ele>
        <time>2018-04-17T16:44:28Z</time>
      </trkpt>
      <trkpt lat="47.21089" lon="2.10111">
        <ele>102</ele>
        <time>2018-04-17T16:44:37Z</time>
      </trkpt>
      <trkpt lat="47.2113" lon="2.10096">
        <ele>102</ele>
        <time>2018-04-17T16:44:46Z</time>
      </trkpt>
      <trkpt lat="47.21179" lon="2.10077">
        <ele>102</ele>
        <time>2018-04-17T16:44:57Z</time>
      </trkpt>
      <trkpt lat="47.21196" lon="2.10071">
        <ele>102</ele>
        <time>2018-04-17T16:45:02Z</time>
      </trkpt>
      <trkpt lat="47.21201" lon="2.10069">
        <ele>102</ele>
        <time>2018-04-17T16:45:04Z</time>
      </trkpt>
      <trkpt lat="47.21211" lon="2.10067">
        <ele>102</ele>
        <time>2018-04-17T16:45:10Z</time>
      </trkpt>
      <trkpt lat="47.21213" lon="2.10066">
        <ele>102</ele>
        <time>2018-04-17T16:45:17Z</time>
      </trkpt>
      <trkpt lat="47.21223" lon="2.10065">
        <ele>102</ele>
        <time>2018-04-17T16:45:21Z</time>
      </trkpt>
      <trkpt lat="47.21245" lon="2.10069">
        <ele>102</ele>
        <time>2018-04-17T16:45:26Z</time>
      </trkpt>
      <trkpt lat="47.21265" lon="2.10076">
        <ele>102</ele>
        <time>2018-04-17T16:45:30Z</time>
      </trkpt>
      <trkpt lat="47.21275" lon="2.10074">
        <ele>103</ele>
        <time>2018-04-17T16:45:32Z</time>
      </trkpt>
      <trkpt lat="47.21289" lon="2.10065">
        <ele>103</ele>
        <time>2018-04-17T16:45:36Z</time>
      </trkpt>
      <trkpt lat="47.21293" lon="2.10058">
        <ele>103</ele>
        <time>2018-04-17T16:45:40Z</time>
      </trkpt>
      <trkpt lat="47.21293" lon="2.10055">
        <ele>103</ele>
        <time>2018-04-17T16:45:41Z</time>
      </trkpt>
      <trkpt lat="47.21291" lon="2.10055">
        <ele>103</ele>
        <time>2018-04-17T16:45:44Z</time>
      </trkpt>
      <trkpt lat="47.21291" lon="2.10055">
        <ele>103</ele>
        <time>2018-04-17T16:45:56Z</time>
      </trkpt>
      <trkpt lat="47.21291" lon="2.10055">
        <ele>103</ele>
        <time>2018-04-17T16:46:13Z</time>
      </trkpt>
      <trkpt lat="47.21291" lon="2.10055">
        <ele>103</ele>
        <time>2018-04-17T16:46:26Z</time>
      </trkpt>
      <trkpt lat="47.21291" lon="2.10055">
        <ele>103</ele>
        <time>2018-04-17T16:46:29Z</time>
      </trkpt>
      <trkpt lat="47.21291" lon="2.10055">
        <ele>103</ele>
        <time>2018-04-17T16:46:31Z</time>
      </trkpt>
      <trkpt lat="47.21291" lon="2.10055">
        <ele>103</ele>
        <time>2018-04-17T16:46:49Z</time>
      </trkpt>
      <trkpt lat="47.21291" lon="2.10055">
        <ele>103</ele>
        <time>2018-04-17T16:47:05Z</time>
      </trkpt>
      <trkpt lat="47.21291" lon="2.10055">
        <ele>103</ele>
        <time>2018-04-17T16:47:18Z</time>
      </trkpt>
      <trkpt lat="47.21291" lon="2.10055">
        <ele>103</ele>
        <time>2018-04-17T16:47:31Z</time>
      </trkpt>
      <trkpt lat="47.2129" lon="2.10055">
        <ele>103</ele>
        <time>2018-04-17T16:47:47Z</time>
      </trkpt>
      <trkpt lat="47.2129" lon="2.10055">
        <ele>103</ele>
        <time>2018-04-17T16:48:03Z</time>
      </trkpt>
      <trkpt lat="47.2129" lon="2.10055">
        <ele>103</ele>
        <time>2018-04-17T16:48:06Z</time>
      </trkpt>
      <trkpt lat="47.2129" lon="2.10055">
        <ele>103</ele>
        <time>2018-04-17T16:48:16Z</time>
      </trkpt>
      <trkpt lat="47.2129" lon="2.10055">
        <ele>103</ele>
        <time>2018-04-17T16:48:32Z</time>
      </trkpt>
      <trkpt lat="47.2129" lon="2.10055">
        <ele>103</ele>
        <time>2018-04-17T16:48:46Z</time>
      </trkpt>
      <trkpt lat="47.2129" lon="2.10055">
        <ele>103</ele>
        <time>2018-04-17T16:48:59Z</time>
      </trkpt>
      <trkpt lat="47.2129" lon="2.10055">
        <ele>103</ele>
        <time>2018-04-17T16:49:17Z</time>
      </trkpt>
      <trkpt lat="47.2129" lon="2.10055">
        <ele>103</ele>
        <time>2018-04-17T16:49:32Z</time>
      </trkpt>
      <trkpt lat="47.21289" lon="2.10055">
        <ele>103</ele>
        <time>2018-04-17T16:49:45Z</time>
      </trkpt>
      <trkpt lat="47.21289" lon="2.10055">
        <ele>103</ele>
        <time>2018-04-17T16:49:53Z</time>
      </trkpt>
      <trkpt lat="47.21289" lon="2.10055">
        <ele>103</ele>
        <time>2018-04-17T16:50:02Z</time>
      </trkpt>
      <trkpt lat="47.21289" lon="2.10055">
        <ele>103</ele>
        <time>2018-04-17T16:50:16Z</time>
      </trkpt>
      <trkpt lat="47.21289" lon="2.10056">
        <ele>103</ele>
        <time>2018-04-17T16:50:32Z</time>
      </trkpt>
      <trkpt lat="47.21289" lon="2.10056">
        <ele>103</ele>
        <time>2018-04-17T16:50:48Z</time>
      </trkpt>
      <trkpt lat="47.21289" lon="2.10056">
        <ele>103</ele>
        <time>2018-04-17T16:51:03Z</time>
      </trkpt>
      <trkpt lat="47.21289" lon="2.10056">
        <ele>103</ele>
        <time>2018-04-17T16:51:21Z</time>
      </trkpt>
      <trkpt lat="47.21289" lon="2.10056">
        <ele>103</ele>
        <time>2018-04-17T16:51:36Z</time>
      </trkpt>
      <trkpt lat="47.21289" lon="2.10056">
        <ele>103</ele>
        <time>2018-04-17T16:51:43Z</time>
      </trkpt>
      <trkpt lat="47.2129" lon="2.10052">
        <ele>103</ele>
        <time>2018-04-17T16:51:52Z</time>
      </trkpt>
      <trkpt lat="47.2129" lon="2.10052">
        <ele>103</ele>
        <time>2018-04-17T16:51:58Z</time>
      </trkpt>
      <trkpt lat="47.2129" lon="2.10052">
        <ele>103</ele>
        <time>2018-04-17T16:52:07Z</time>
      </trkpt>
      <trkpt lat="47.2129" lon="2.10052">
        <ele>103</ele>
        <time>2018-04-17T16:52:18Z</time>
      </trkpt>
      <trkpt lat="47.21291" lon="2.1005">
        <ele>103</ele>
        <time>2018-04-17T16:52:22Z</time>
      </trkpt>
      <trkpt lat="47.21293" lon="2.10044">
        <ele>103</ele>
        <time>2018-04-17T16:52:24Z</time>
      </trkpt>
      <trkpt lat="47.21297" lon="2.10033">
        <ele>103</ele>
        <time>2018-04-17T16:52:26Z</time>
      </trkpt>
      <trkpt lat="47.21298" lon="2.10027">
        <ele>103</ele>
        <time>2018-04-17T16:52:27Z</time>
      </trkpt>
      <trkpt lat="47.213" lon="2.1002">
        <ele>103</ele>
        <time>2018-04-17T16:52:28Z</time>
      </trkpt>
      <trkpt lat="47.21303" lon="2.10014">
        <ele>103</ele>
        <time>2018-04-17T16:52:29Z</time>
      </trkpt>
      <trkpt lat="47.21309" lon="2.09998">
        <ele>103</ele>
        <time>2018-04-17T16:52:32Z</time>
      </trkpt>
      <trkpt lat="47.21315" lon="2.09983">
        <ele>103</ele>
        <time>2018-04-17T16:52:36Z</time>
      </trkpt>
      <trkpt lat="47.21325" lon="2.09957">
        <ele>102</ele>
        <time>2018-04-17T16:52:41Z</time>
      </trkpt>
      <trkpt lat="47.21343" lon="2.09911">
        <ele>102</ele>
        <time>2018-04-17T16:52:50Z</time>
      </trkpt>
      <trkpt lat="47.21354" lon="2.09882">
        <ele>103</ele>
        <time>2018-04-17T16:52:57Z</time>
      </trkpt>
      <trkpt lat="47.21364" lon="2.09858">
        <ele>103</ele>
        <time>2018-04-17T16:53:04Z</time>
      </trkpt>
      <trkpt lat="47.2137" lon="2.09839">
        <ele>103</ele>
        <time>2018-04-17T16:53:09Z</time>
      </trkpt>
      <trkpt lat="47.21376" lon="2.09815">
        <ele>103</ele>
        <time>2018-04-17T16:53:15Z</time>
      </trkpt>
      <trkpt lat="47.21387" lon="2.09787">
        <ele>103</ele>
        <time>2018-04-17T16:53:21Z</time>
      </trkpt>
      <trkpt lat="47.21398" lon="2.09759">
        <ele>104</ele>
        <time>2018-04-17T16:53:28Z</time>
      </trkpt>
      <trkpt lat="47.21414" lon="2.09741">
        <ele>104</ele>
        <time>2018-04-17T16:53:34Z</time>
      </trkpt>
      <trkpt lat="47.21424" lon="2.09732">
        <ele>104</ele>
        <time>2018-04-17T16:53:37Z</time>
      </trkpt>
      <trkpt lat="47.2144" lon="2.09719">
        <ele>104</ele>
        <time>2018-04-17T16:53:41Z</time>
      </trkpt>
      <trkpt lat="47.21463" lon="2.09697">
        <ele>104</ele>
        <time>2018-04-17T16:53:48Z</time>
      </trkpt>
      <trkpt lat="47.21478" lon="2.09675">
        <ele>103</ele>
        <time>2018-04-17T16:53:54Z</time>
      </trkpt>
      <trkpt lat="47.2149" lon="2.09649">
        <ele>103</ele>
        <time>2018-04-17T16:54:00Z</time>
      </trkpt>
      <trkpt lat="47.21502" lon="2.09612">
        <ele>103</ele>
        <time>2018-04-17T16:54:08Z</time>
      </trkpt>
      <trkpt lat="47.21506" lon="2.09581">
        <ele>103</ele>
        <time>2018-04-17T16:54:14Z</time>
      </trkpt>
      <trkpt lat="47.21506" lon="2.09549">
        <ele>103</ele>
        <time>2018-04-17T16:54:20Z</time>
      </trkpt>
      <trkpt lat="47.21503" lon="2.09518">
        <ele>103</ele>
        <time>2018-04-17T16:54:27Z</time>
      </trkpt>
      <trkpt lat="47.21502" lon="2.09499">
        <ele>103</ele>
        <time>2018-04-17T16:54:32Z</time>
      </trkpt>
      <trkpt lat="47.21502" lon="2.09498">
        <ele>103</ele>
        <time>2018-04-17T16:54:36Z</time>
      </trkpt>
      <trkpt lat="47.21502" lon="2.09496">
        <ele>103</ele>
        <time>2018-04-17T16:54:38Z</time>
      </trkpt>
      <trkpt lat="47.21504" lon="2.09489">
        <ele>103</ele>
        <time>2018-04-17T16:54:41Z</time>
      </trkpt>
      <trkpt lat="47.21505" lon="2.09487">
        <ele>103</ele>
        <time>2018-04-17T16:54:42Z</time>
      </trkpt>
      <trkpt lat="47.2151" lon="2.09475">
        <ele>103</ele>
        <time>2018-04-17T16:54:46Z</time>
      </trkpt>
      <trkpt lat="47.2151" lon="2.09466">
        <ele>103</ele>
        <time>2018-04-17T16:54:48Z</time>
      </trkpt>
      <trkpt lat="47.21511" lon="2.09443">
        <ele>103</ele>
        <time>2018-04-17T16:54:52Z</time>
      </trkpt>
      <trkpt lat="47.21516" lon="2.09414">
        <ele>103</ele>
        <time>2018-04-17T16:54:58Z</time>
      </trkpt>
      <trkpt lat="47.21524" lon="2.09382">
        <ele>103</ele>
        <time>2018-04-17T16:55:04Z</time>
      </trkpt>
      <trkpt lat="47.21534" lon="2.0934">
        <ele>103</ele>
        <time>2018-04-17T16:55:11Z</time>
      </trkpt>
      <trkpt lat="47.21545" lon="2.09293">
        <ele>103</ele>
        <time>2018-04-17T16:55:19Z</time>
      </trkpt>
      <trkpt lat="47.21557" lon="2.09249">
        <ele>103</ele>
        <time>2018-04-17T16:55:27Z</time>
      </trkpt>
      <trkpt lat="47.21569" lon="2.09199">
        <ele>103</ele>
        <time>2018-04-17T16:55:36Z</time>
      </trkpt>
      <trkpt lat="47.21579" lon="2.09156">
        <ele>104</ele>
        <time>2018-04-17T16:55:44Z</time>
      </trkpt>
      <trkpt lat="47.21586" lon="2.0913">
        <ele>103</ele>
        <time>2018-04-17T16:55:49Z</time>
      </trkpt>
      <trkpt lat="47.21594" lon="2.09098">
        <ele>103</ele>
        <time>2018-04-17T16:55:55Z</time>
      </trkpt>
      <trkpt lat="47.21601" lon="2.09066">
        <ele>102</ele>
        <time>2018-04-17T16:56:01Z</time>
      </trkpt>
      <trkpt lat="47.21606" lon="2.09039">
        <ele>102</ele>
        <time>2018-04-17T16:56:07Z</time>
      </trkpt>
      <trkpt lat="47.21607" lon="2.09033">
        <ele>101</ele>
        <time>2018-04-17T16:56:09Z</time>
      </trkpt>
      <trkpt lat="47.21605" lon="2.09029">
        <ele>101</ele>
        <time>2018-04-17T16:56:11Z</time>
      </trkpt>
      <trkpt lat="47.21601" lon="2.09022">
        <ele>101</ele>
        <time>2018-04-17T16:56:17Z</time>
      </trkpt>
      <trkpt lat="47.21601" lon="2.09021">
        <ele>101</ele>
        <time>2018-04-17T16:56:18Z</time>
      </trkpt>
      <trkpt lat="47.21605" lon="2.09012">
        <ele>101</ele>
        <time>2018-04-17T16:56:22Z</time>
      </trkpt>
      <trkpt lat="47.21608" lon="2.09002">
        <ele>101</ele>
        <time>2018-04-17T16:56:25Z</time>
      </trkpt>
      <trkpt lat="47.2161" lon="2.08991">
        <ele>100</ele>
        <time>2018-04-17T16:56:28Z</time>
      </trkpt>
      <trkpt lat="47.21616" lon="2.0897">
        <ele>101</ele>
        <time>2018-04-17T16:56:33Z</time>
      </trkpt>
      <trkpt lat="47.21617" lon="2.08964">
        <ele>101</ele>
        <time>2018-04-17T16:56:34Z</time>
      </trkpt>
      <trkpt lat="47.21621" lon="2.08935">
        <ele>101</ele>
        <time>2018-04-17T16:56:38Z</time>
      </trkpt>
      <trkpt lat="47.2163" lon="2.08887">
        <ele>101</ele>
        <time>2018-04-17T16:56:45Z</time>
      </trkpt>
      <trkpt lat="47.21638" lon="2.08854">
        <ele>101</ele>
        <time>2018-04-17T16:56:50Z</time>
      </trkpt>
      <trkpt lat="47.21645" lon="2.08824">
        <ele>101</ele>
        <time>2018-04-17T16:56:55Z</time>
      </trkpt>
      <trkpt lat="47.21659" lon="2.08771">
        <ele>100</ele>
        <time>2018-04-17T16:57:04Z</time>
      </trkpt>
      <trkpt lat="47.21671" lon="2.08719">
        <ele>100</ele>
        <time>2018-04-17T16:57:12Z</time>
      </trkpt>
      <trkpt lat="47.21685" lon="2.08663">
        <ele>99</ele>
        <time>2018-04-17T16:57:21Z</time>
      </trkpt>
      <trkpt lat="47.21697" lon="2.08613">
        <ele>100</ele>
        <time>2018-04-17T16:57:29Z</time>
      </trkpt>
      <trkpt lat="47.21706" lon="2.08577">
        <ele>101</ele>
        <time>2018-04-17T16:57:36Z</time>
      </trkpt>
      <trkpt lat="47.21707" lon="2.08571">
        <ele>101</ele>
        <time>2018-04-17T16:57:41Z</time>
      </trkpt>
      <trkpt lat="47.21709" lon="2.08563">
        <ele>101</ele>
        <time>2018-04-17T16:57:47Z</time>
      </trkpt>
      <trkpt lat="47.21715" lon="2.08537">
        <ele>101</ele>
        <time>2018-04-17T16:57:52Z</time>
      </trkpt>
      <trkpt lat="47.21716" lon="2.08535">
        <ele>101</ele>
        <time>2018-04-17T16:57:53Z</time>
      </trkpt>
      <trkpt lat="47.21717" lon="2.08531">
        <ele>101</ele>
        <time>2018-04-17T16:57:55Z</time>
      </trkpt>
      <trkpt lat="47.21717" lon="2.0853">
        <ele>101</ele>
        <time>2018-04-17T16:58:00Z</time>
      </trkpt>
      <trkpt lat="47.2172" lon="2.08518">
        <ele>101</ele>
        <time>2018-04-17T16:58:04Z</time>
      </trkpt>
      <trkpt lat="47.21725" lon="2.08495">
        <ele>101</ele>
        <time>2018-04-17T16:58:08Z</time>
      </trkpt>
      <trkpt lat="47.21732" lon="2.08462">
        <ele>101</ele>
        <time>2018-04-17T16:58:14Z</time>
      </trkpt>
      <trkpt lat="47.21741" lon="2.08427">
        <ele>101</ele>
        <time>2018-04-17T16:58:20Z</time>
      </trkpt>
      <trkpt lat="47.21745" lon="2.0841">
        <ele>102</ele>
        <time>2018-04-17T16:58:23Z</time>
      </trkpt>
      <trkpt lat="47.21749" lon="2.08392">
        <ele>101</ele>
        <time>2018-04-17T16:58:26Z</time>
      </trkpt>
      <trkpt lat="47.21752" lon="2.0838">
        <ele>100</ele>
        <time>2018-04-17T16:58:28Z</time>
      </trkpt>
      <trkpt lat="47.21763" lon="2.08338">
        <ele>100</ele>
        <time>2018-04-17T16:58:35Z</time>
      </trkpt>
      <trkpt lat="47.21764" lon="2.08331">
        <ele>100</ele>
        <time>2018-04-17T16:58:36Z</time>
      </trkpt>
      <trkpt lat="47.21775" lon="2.08288">
        <ele>100</ele>
        <time>2018-04-17T16:58:43Z</time>
      </trkpt>
      <trkpt lat="47.21782" lon="2.08264">
        <ele>100</ele>
        <time>2018-04-17T16:58:47Z</time>
      </trkpt>
      <trkpt lat="47.21788" lon="2.08238">
        <ele>100</ele>
        <time>2018-04-17T16:58:51Z</time>
      </trkpt>
      <trkpt lat="47.21792" lon="2.08219">
        <ele>100</ele>
        <time>2018-04-17T16:58:54Z</time>
      </trkpt>
      <trkpt lat="47.21799" lon="2.08194">
        <ele>101</ele>
        <time>2018-04-17T16:58:58Z</time>
      </trkpt>
      <trkpt lat="47.218" lon="2.08187">
        <ele>101</ele>
        <time>2018-04-17T16:58:59Z</time>
      </trkpt>
      <trkpt lat="47.21809" lon="2.08154">
        <ele>101</ele>
        <time>2018-04-17T16:59:04Z</time>
      </trkpt>
      <trkpt lat="47.2182" lon="2.08106">
        <ele>101</ele>
        <time>2018-04-17T16:59:11Z</time>
      </trkpt>
      <trkpt lat="47.21828" lon="2.08075">
        <ele>101</ele>
        <time>2018-04-17T16:59:16Z</time>
      </trkpt>
      <trkpt lat="47.21831" lon="2.08062">
        <ele>101</ele>
        <time>2018-04-17T16:59:18Z</time>
      </trkpt>
      <trkpt lat="47.21832" lon="2.08056">
        <ele>101</ele>
        <time>2018-04-17T16:59:19Z</time>
      </trkpt>
      <trkpt lat="47.2184" lon="2.08023">
        <ele>101</ele>
        <time>2018-04-17T16:59:24Z</time>
      </trkpt>
      <trkpt lat="47.21853" lon="2.07975">
        <ele>101</ele>
        <time>2018-04-17T16:59:31Z</time>
      </trkpt>
      <trkpt lat="47.21859" lon="2.07948">
        <ele>101</ele>
        <time>2018-04-17T16:59:35Z</time>
      </trkpt>
      <trkpt lat="47.21864" lon="2.07928">
        <ele>102</ele>
        <time>2018-04-17T16:59:38Z</time>
      </trkpt>
      <trkpt lat="47.21874" lon="2.07874">
        <ele>102</ele>
        <time>2018-04-17T16:59:46Z</time>
      </trkpt>
      <trkpt lat="47.21878" lon="2.07855">
        <ele>102</ele>
        <time>2018-04-17T16:59:49Z</time>
      </trkpt>
      <trkpt lat="47.2188" lon="2.07842">
        <ele>102</ele>
        <time>2018-04-17T16:59:51Z</time>
      </trkpt>
      <trkpt lat="47.21886" lon="2.07808">
        <ele>102</ele>
        <time>2018-04-17T16:59:56Z</time>
      </trkpt>
      <trkpt lat="47.21889" lon="2.07794">
        <ele>103</ele>
        <time>2018-04-17T16:59:58Z</time>
      </trkpt>
      <trkpt lat="47.21896" lon="2.07755">
        <ele>103</ele>
        <time>2018-04-17T17:00:04Z</time>
      </trkpt>
      <trkpt lat="47.219" lon="2.07731">
        <ele>104</ele>
        <time>2018-04-17T17:00:08Z</time>
      </trkpt>
      <trkpt lat="47.21903" lon="2.07718">
        <ele>103</ele>
        <time>2018-04-17T17:00:10Z</time>
      </trkpt>
      <trkpt lat="47.21912" lon="2.07668">
        <ele>104</ele>
        <time>2018-04-17T17:00:18Z</time>
      </trkpt>
      <trkpt lat="47.21922" lon="2.07614">
        <ele>102</ele>
        <time>2018-04-17T17:00:26Z</time>
      </trkpt>
      <trkpt lat="47.21933" lon="2.07551">
        <ele>101</ele>
        <time>2018-04-17T17:00:35Z</time>
      </trkpt>
      <trkpt lat="47.21934" lon="2.07545">
        <ele>101</ele>
        <time>2018-04-17T17:00:36Z</time>
      </trkpt>
      <trkpt lat="47.21944" lon="2.07489">
        <ele>102</ele>
        <time>2018-04-17T17:00:44Z</time>
      </trkpt>
      <trkpt lat="47.2195" lon="2.07453">
        <ele>102</ele>
        <time>2018-04-17T17:00:50Z</time>
      </trkpt>
      <trkpt lat="47.21957" lon="2.07414">
        <ele>102</ele>
        <time>2018-04-17T17:00:56Z</time>
      </trkpt>
      <trkpt lat="47.21963" lon="2.07388">
        <ele>102</ele>
        <time>2018-04-17T17:01:00Z</time>
      </trkpt>
      <trkpt lat="47.21964" lon="2.07377">
        <ele>102</ele>
        <time>2018-04-17T17:01:02Z</time>
      </trkpt>
      <trkpt lat="47.21969" lon="2.07351">
        <ele>101</ele>
        <time>2018-04-17T17:01:07Z</time>
      </trkpt>
      <trkpt lat="47.2198" lon="2.07311">
        <ele>101</ele>
        <time>2018-04-17T17:01:14Z</time>
      </trkpt>
      <trkpt lat="47.2199" lon="2.07281">
        <ele>100</ele>
        <time>2018-04-17T17:01:20Z</time>
      </trkpt>
      <trkpt lat="47.21995" lon="2.07262">
        <ele>100</ele>
        <time>2018-04-17T17:01:25Z</time>
      </trkpt>
      <trkpt lat="47.21995" lon="2.07255">
        <ele>99</ele>
        <time>2018-04-17T17:01:28Z</time>
      </trkpt>
      <trkpt lat="47.21996" lon="2.07254">
        <ele>99</ele>
        <time>2018-04-17T17:01:29Z</time>
      </trkpt>
      <trkpt lat="47.22" lon="2.07258">
        <ele>99</ele>
        <time>2018-04-17T17:01:32Z</time>
      </trkpt>
      <trkpt lat="47.22003" lon="2.0726">
        <ele>99</ele>
        <time>2018-04-17T17:01:34Z</time>
      </trkpt>
      <trkpt lat="47.22017" lon="2.07263">
        <ele>100</ele>
        <time>2018-04-17T17:01:41Z</time>
      </trkpt>
      <trkpt lat="47.22018" lon="2.07261">
        <ele>100</ele>
        <time>2018-04-17T17:01:42Z</time>
      </trkpt>
      <trkpt lat="47.2202" lon="2.07254">
        <ele>100</ele>
        <time>2018-04-17T17:01:44Z</time>
      </trkpt>
      <trkpt lat="47.22022" lon="2.07244">
        <ele>99</ele>
        <time>2018-04-17T17:01:47Z</time>
      </trkpt>
      <trkpt lat="47.22022" lon="2.07241">
        <ele>99</ele>
        <time>2018-04-17T17:01:48Z</time>
      </trkpt>
      <trkpt lat="47.22026" lon="2.07227">
        <ele>99</ele>
        <time>2018-04-17T17:01:52Z</time>
      </trkpt>
      <trkpt lat="47.2203" lon="2.07212">
        <ele>99</ele>
        <time>2018-04-17T17:01:55Z</time>
      </trkpt>
      <trkpt lat="47.22032" lon="2.07203">
        <ele>99</ele>
        <time>2018-04-17T17:01:57Z</time>
      </trkpt>
      <trkpt lat="47.22034" lon="2.07201">
        <ele>99</ele>
        <time>2018-04-17T17:01:58Z</time>
      </trkpt>
      <trkpt lat="47.22043" lon="2.07192">
        <ele>100</ele>
        <time>2018-04-17T17:02:02Z</time>
      </trkpt>
      <trkpt lat="47.22054" lon="2.07187">
        <ele>100</ele>
        <time>2018-04-17T17:02:07Z</time>
      </trkpt>
      <trkpt lat="47.22056" lon="2.07186">
        <ele>100</ele>
        <time>2018-04-17T17:02:08Z</time>
      </trkpt>
      <trkpt lat="47.22064" lon="2.07172">
        <ele>100</ele>
        <time>2018-04-17T17:02:13Z</time>
      </trkpt>
      <trkpt lat="47.22069" lon="2.07151">
        <ele>100</ele>
        <time>2018-04-17T17:02:18Z</time>
      </trkpt>
      <trkpt lat="47.22073" lon="2.07133">
        <ele>101</ele>
        <time>2018-04-17T17:02:22Z</time>
      </trkpt>
      <trkpt lat="47.22079" lon="2.07105">
        <ele>102</ele>
        <time>2018-04-17T17:02:28Z</time>
      </trkpt>
      <trkpt lat="47.22085" lon="2.07076">
        <ele>104</ele>
        <time>2018-04-17T17:02:33Z</time>
      </trkpt>
      <trkpt lat="47.22085" lon="2.07055">
        <ele>105</ele>
        <time>2018-04-17T17:02:38Z</time>
      </trkpt>
      <trkpt lat="47.22088" lon="2.07038">
        <ele>105</ele>
        <time>2018-04-17T17:02:43Z</time>
      </trkpt>
      <trkpt lat="47.22096" lon="2.07015">
        <ele>104</ele>
        <time>2018-04-17T17:02:50Z</time>
      </trkpt>
      <trkpt lat="47.22102" lon="2.06976">
        <ele>104</ele>
        <time>2018-04-17T17:03:00Z</time>
      </trkpt>
      <trkpt lat="47.2211" lon="2.0696">
        <ele>104</ele>
        <time>2018-04-17T17:03:06Z</time>
      </trkpt>
      <trkpt lat="47.22116" lon="2.06937">
        <ele>104</ele>
        <time>2018-04-17T17:03:12Z</time>
      </trkpt>
      <trkpt lat="47.22122" lon="2.06921">
        <ele>104</ele>
        <time>2018-04-17T17:03:17Z</time>
      </trkpt>
      <trkpt lat="47.22123" lon="2.0692">
        <ele>104</ele>
        <time>2018-04-17T17:03:18Z</time>
      </trkpt>
      <trkpt lat="47.22126" lon="2.06921">
        <ele>104</ele>
        <time>2018-04-17T17:03:20Z</time>
      </trkpt>
      <trkpt lat="47.2213" lon="2.06923">
        <ele>105</ele>
        <time>2018-04-17T17:03:24Z</time>
      </trkpt>
      <trkpt lat="47.22131" lon="2.06924">
        <ele>105</ele>
        <time>2018-04-17T17:03:25Z</time>
      </trkpt>
      <trkpt lat="47.22136" lon="2.06927">
        <ele>105</ele>
        <time>2018-04-17T17:03:29Z</time>
      </trkpt>
      <trkpt lat="47.22146" lon="2.06926">
        <ele>105</ele>
        <time>2018-04-17T17:03:33Z</time>
      </trkpt>
      <trkpt lat="47.22148" lon="2.06924">
        <ele>106</ele>
        <time>2018-04-17T17:03:34Z</time>
      </trkpt>
      <trkpt lat="47.22148" lon="2.06916">
        <ele>105</ele>
        <time>2018-04-17T17:03:36Z</time>
      </trkpt>
      <trkpt lat="47.22146" lon="2.06903">
        <ele>104</ele>
        <time>2018-04-17T17:03:39Z</time>
      </trkpt>
      <trkpt lat="47.22143" lon="2.0689">
        <ele>104</ele>
        <time>2018-04-17T17:03:42Z</time>
      </trkpt>
      <trkpt lat="47.2214" lon="2.06864">
        <ele>103</ele>
        <time>2018-04-17T17:03:48Z</time>
      </trkpt>
      <trkpt lat="47.22139" lon="2.06861">
        <ele>103</ele>
        <time>2018-04-17T17:03:49Z</time>
      </trkpt>
      <trkpt lat="47.22132" lon="2.06857">
        <ele>103</ele>
        <time>2018-04-17T17:03:52Z</time>
      </trkpt>
      <trkpt lat="47.22126" lon="2.06855">
        <ele>103</ele>
        <time>2018-04-17T17:03:55Z</time>
      </trkpt>
      <trkpt lat="47.22121" lon="2.06854">
        <ele>103</ele>
        <time>2018-04-17T17:03:57Z</time>
      </trkpt>
      <trkpt lat="47.2211" lon="2.06853">
        <ele>102</ele>
        <time>2018-04-17T17:04:02Z</time>
      </trkpt>
      <trkpt lat="47.22109" lon="2.06847">
        <ele>102</ele>
        <time>2018-04-17T17:04:04Z</time>
      </trkpt>
      <trkpt lat="47.2211" lon="2.06839">
        <ele>102</ele>
        <time>2018-04-17T17:04:06Z</time>
      </trkpt>
      <trkpt lat="47.2211" lon="2.06824">
        <ele>102</ele>
        <time>2018-04-17T17:04:09Z</time>
      </trkpt>
      <trkpt lat="47.22109" lon="2.06809">
        <ele>102</ele>
        <time>2018-04-17T17:04:12Z</time>
      </trkpt>
      <trkpt lat="47.2211" lon="2.06785">
        <ele>102</ele>
        <time>2018-04-17T17:04:17Z</time>
      </trkpt>
      <trkpt lat="47.22111" lon="2.06765">
        <ele>102</ele>
        <time>2018-04-17T17:04:23Z</time>
      </trkpt>
      <trkpt lat="47.2211" lon="2.06761">
        <ele>102</ele>
        <time>2018-04-17T17:04:28Z</time>
      </trkpt>
      <trkpt lat="47.2211" lon="2.06762">
        <ele>102</ele>
        <time>2018-04-17T17:04:35Z</time>
      </trkpt>
      <trkpt lat="47.22111" lon="2.0676">
        <ele>102</ele>
        <time>2018-04-17T17:04:36Z</time>
      </trkpt>
      <trkpt lat="47.22113" lon="2.0675">
        <ele>101</ele>
        <time>2018-04-17T17:04:40Z</time>
      </trkpt>
      <trkpt lat="47.22114" lon="2.06748">
        <ele>101</ele>
        <time>2018-04-17T17:04:41Z</time>
      </trkpt>
      <trkpt lat="47.22116" lon="2.06743">
        <ele>101</ele>
        <time>2018-04-17T17:04:44Z</time>
      </trkpt>
      <trkpt lat="47.22118" lon="2.06729">
        <ele>101</ele>
        <time>2018-04-17T17:04:49Z</time>
      </trkpt>
      <trkpt lat="47.22123" lon="2.06727">
        <ele>102</ele>
        <time>2018-04-17T17:04:54Z</time>
      </trkpt>
      <trkpt lat="47.22126" lon="2.06728">
        <ele>102</ele>
        <time>2018-04-17T17:04:56Z</time>
      </trkpt>
      <trkpt lat="47.22134" lon="2.0673">
        <ele>102</ele>
        <time>2018-04-17T17:05:01Z</time>
      </trkpt>
      <trkpt lat="47.22136" lon="2.06728">
        <ele>102</ele>
        <time>2018-04-17T17:05:03Z</time>
      </trkpt>
      <trkpt lat="47.22136" lon="2.06725">
        <ele>102</ele>
        <time>2018-04-17T17:05:05Z</time>
      </trkpt>
      <trkpt lat="47.22134" lon="2.06717">
        <ele>102</ele>
        <time>2018-04-17T17:05:09Z</time>
      </trkpt>
      <trkpt lat="47.22131" lon="2.06701">
        <ele>102</ele>
        <time>2018-04-17T17:05:14Z</time>
      </trkpt>
      <trkpt lat="47.22132" lon="2.06697">
        <ele>102</ele>
        <time>2018-04-17T17:05:15Z</time>
      </trkpt>
      <trkpt lat="47.22131" lon="2.06693">
        <ele>102</ele>
        <time>2018-04-17T17:05:16Z</time>
      </trkpt>
      <trkpt lat="47.22127" lon="2.06685">
        <ele>101</ele>
        <time>2018-04-17T17:05:18Z</time>
      </trkpt>
      <trkpt lat="47.22106" lon="2.06659">
        <ele>101</ele>
        <time>2018-04-17T17:05:26Z</time>
      </trkpt>
      <trkpt lat="47.22097" lon="2.06644">
        <ele>101</ele>
        <time>2018-04-17T17:05:31Z</time>
      </trkpt>
      <trkpt lat="47.22081" lon="2.0662">
        <ele>100</ele>
        <time>2018-04-17T17:05:38Z</time>
      </trkpt>
      <trkpt lat="47.22069" lon="2.066">
        <ele>100</ele>
        <time>2018-04-17T17:05:45Z</time>
      </trkpt>
      <trkpt lat="47.22063" lon="2.06588">
        <ele>100</ele>
        <time>2018-04-17T17:05:51Z</time>
      </trkpt>
      <trkpt lat="47.2206" lon="2.06586">
        <ele>100</ele>
        <time>2018-04-17T17:05:53Z</time>
      </trkpt>
      <trkpt lat="47.22055" lon="2.06583">
        <ele>100</ele>
        <time>2018-04-17T17:05:56Z</time>
      </trkpt>
      <trkpt lat="47.22049" lon="2.06578">
        <ele>100</ele>
        <time>2018-04-17T17:06:03Z</time>
      </trkpt>
      <trkpt lat="47.22049" lon="2.06578">
        <ele>100</ele>
        <time>2018-04-17T17:06:16Z</time>
      </trkpt>
      <trkpt lat="47.22049" lon="2.06578">
        <ele>100</ele>
        <time>2018-04-17T17:06:28Z</time>
      </trkpt>
      <trkpt lat="47.22049" lon="2.06578">
        <ele>100</ele>
        <time>2018-04-17T17:06:37Z</time>
      </trkpt>
      <trkpt lat="47.22049" lon="2.06578">
        <ele>100</ele>
        <time>2018-04-17T17:06:52Z</time>
      </trkpt>
      <trkpt lat="47.22049" lon="2.06577">
        <ele>100</ele>
        <time>2018-04-17T17:06:59Z</time>
      </trkpt>
      <trkpt lat="47.22047" lon="2.06573">
        <ele>100</ele>
        <time>2018-04-17T17:07:01Z</time>
      </trkpt>
      <trkpt lat="47.22041" lon="2.06561">
        <ele>100</ele>
        <time>2018-04-17T17:07:05Z</time>
      </trkpt>
      <trkpt lat="47.22039" lon="2.06557">
        <ele>100</ele>
        <time>2018-04-17T17:07:06Z</time>
      </trkpt>
      <trkpt lat="47.22033" lon="2.06541">
        <ele>100</ele>
        <time>2018-04-17T17:07:09Z</time>
      </trkpt>
      <trkpt lat="47.22027" lon="2.06529">
        <ele>100</ele>
        <time>2018-04-17T17:07:11Z</time>
      </trkpt>
      <trkpt lat="47.22021" lon="2.06518">
        <ele>100</ele>
        <time>2018-04-17T17:07:13Z</time>
      </trkpt>
      <trkpt lat="47.22018" lon="2.06506">
        <ele>99</ele>
        <time>2018-04-17T17:07:15Z</time>
      </trkpt>
      <trkpt lat="47.22016" lon="2.06501">
        <ele>99</ele>
        <time>2018-04-17T17:07:16Z</time>
      </trkpt>
      <trkpt lat="47.22006" lon="2.06472">
        <ele>99</ele>
        <time>2018-04-17T17:07:22Z</time>
      </trkpt>
      <trkpt lat="47.21995" lon="2.06443">
        <ele>99</ele>
        <time>2018-04-17T17:07:28Z</time>
      </trkpt>
      <trkpt lat="47.21987" lon="2.06418">
        <ele>99</ele>
        <time>2018-04-17T17:07:33Z</time>
      </trkpt>
      <trkpt lat="47.21981" lon="2.06404">
        <ele>99</ele>
        <time>2018-04-17T17:07:37Z</time>
      </trkpt>
      <trkpt lat="47.21973" lon="2.06372">
        <ele>99</ele>
        <time>2018-04-17T17:07:43Z</time>
      </trkpt>
      <trkpt lat="47.2197" lon="2.06338">
        <ele>99</ele>
        <time>2018-04-17T17:07:49Z</time>
      </trkpt>
      <trkpt lat="47.21963" lon="2.06304">
        <ele>98</ele>
        <time>2018-04-17T17:07:55Z</time>
      </trkpt>
      <trkpt lat="47.21959" lon="2.06286">
        <ele>98</ele>
        <time>2018-04-17T17:07:59Z</time>
      </trkpt>
      <trkpt lat="47.21957" lon="2.06278">
        <ele>98</ele>
        <time>2018-04-17T17:08:01Z</time>
      </trkpt>
      <trkpt lat="47.21955" lon="2.06271">
        <ele>98</ele>
        <time>2018-04-17T17:08:04Z</time>
      </trkpt>
      <trkpt lat="47.21955" lon="2.06268">
        <ele>98</ele>
        <time>2018-04-17T17:08:08Z</time>
      </trkpt>
      <trkpt lat="47.21955" lon="2.06268">
        <ele>98</ele>
        <time>2018-04-17T17:08:22Z</time>
      </trkpt>
      <trkpt lat="47.21956" lon="2.06269">
        <ele>98</ele>
        <time>2018-04-17T17:08:34Z</time>
      </trkpt>
      <trkpt lat="47.21956" lon="2.06269">
        <ele>98</ele>
        <time>2018-04-17T17:08:48Z</time>
      </trkpt>
      <trkpt lat="47.21956" lon="2.06269">
        <ele>98</ele>
        <time>2018-04-17T17:09:01Z</time>
      </trkpt>
      <trkpt lat="47.21956" lon="2.06269">
        <ele>98</ele>
        <time>2018-04-17T17:09:10Z</time>
      </trkpt>
      <trkpt lat="47.21956" lon="2.06269">
        <ele>98</ele>
        <time>2018-04-17T17:09:29Z</time>
      </trkpt>
      <trkpt lat="47.21956" lon="2.06269">
        <ele>98</ele>
        <time>2018-04-17T17:09:37Z</time>
      </trkpt>
      <trkpt lat="47.21956" lon="2.06268">
        <ele>98</ele>
        <time>2018-04-17T17:09:45Z</time>
      </trkpt>
      <trkpt lat="47.21956" lon="2.0627">
        <ele>98</ele>
        <time>2018-04-17T17:09:50Z</time>
      </trkpt>
      <trkpt lat="47.21956" lon="2.0627">
        <ele>98</ele>
        <time>2018-04-17T17:10:02Z</time>
      </trkpt>
      <trkpt lat="47.21957" lon="2.06276">
        <ele>98</ele>
        <time>2018-04-17T17:10:12Z</time>
      </trkpt>
      <trkpt lat="47.21962" lon="2.0628">
        <ele>98</ele>
        <time>2018-04-17T17:10:15Z</time>
      </trkpt>
      <trkpt lat="47.21966" lon="2.06271">
        <ele>98</ele>
        <time>2018-04-17T17:10:19Z</time>
      </trkpt>
      <trkpt lat="47.21967" lon="2.06258">
        <ele>99</ele>
        <time>2018-04-17T17:10:22Z</time>
      </trkpt>
      <trkpt lat="47.21968" lon="2.06243">
        <ele>99</ele>
        <time>2018-04-17T17:10:24Z</time>
      </trkpt>
      <trkpt lat="47.21969" lon="2.06228">
        <ele>99</ele>
        <time>2018-04-17T17:10:26Z</time>
      </trkpt>
      <trkpt lat="47.21971" lon="2.06193">
        <ele>99</ele>
        <time>2018-04-17T17:10:31Z</time>
      </trkpt>
      <trkpt lat="47.21972" lon="2.0618">
        <ele>99</ele>
        <time>2018-04-17T17:10:33Z</time>
      </trkpt>
      <trkpt lat="47.21973" lon="2.06156">
        <ele>99</ele>
        <time>2018-04-17T17:10:37Z</time>
      </trkpt>
      <trkpt lat="47.21974" lon="2.06143">
        <ele>98</ele>
        <time>2018-04-17T17:10:39Z</time>
      </trkpt>
      <trkpt lat="47.21977" lon="2.06104">
        <ele>99</ele>
        <time>2018-04-17T17:10:45Z</time>
      </trkpt>
      <trkpt lat="47.21977" lon="2.06051">
        <ele>98</ele>
        <time>2018-04-17T17:10:52Z</time>
      </trkpt>
      <trkpt lat="47.21977" lon="2.0603">
        <ele>98</ele>
        <time>2018-04-17T17:10:56Z</time>
      </trkpt>
      <trkpt lat="47.21977" lon="2.06022">
        <ele>98</ele>
        <time>2018-04-17T17:11:00Z</time>
      </trkpt>
      <trkpt lat="47.21977" lon="2.06016">
        <ele>98</ele>
        <time>2018-04-17T17:11:06Z</time>
      </trkpt>
      <trkpt lat="47.21977" lon="2.06016">
        <ele>98</ele>
        <time>2018-04-17T17:11:15Z</time>
      </trkpt>
      <trkpt lat="47.21977" lon="2.06016">
        <ele>98</ele>
        <time>2018-04-17T17:11:31Z</time>
      </trkpt>
      <trkpt lat="47.21977" lon="2.06016">
        <ele>98</ele>
        <time>2018-04-17T17:11:40Z</time>
      </trkpt>
      <trkpt lat="47.21977" lon="2.06015">
        <ele>98</ele>
        <time>2018-04-17T17:11:47Z</time>
      </trkpt>
      <trkpt lat="47.21977" lon="2.06015">
        <ele>98</ele>
        <time>2018-04-17T17:11:57Z</time>
      </trkpt>
      <trkpt lat="47.21977" lon="2.06015">
        <ele>98</ele>
        <time>2018-04-17T17:12:12Z</time>
      </trkpt>
      <trkpt lat="47.21977" lon="2.06016">
        <ele>98</ele>
        <time>2018-04-17T17:12:27Z</time>
      </trkpt>
      <trkpt lat="47.21977" lon="2.06016">
        <ele>98</ele>
        <time>2018-04-17T17:12:48Z</time>
      </trkpt>
      <trkpt lat="47.21977" lon="2.06016">
        <ele>98</ele>
        <time>2018-04-17T17:13:04Z</time>
      </trkpt>
    </trkseg>
  </trk>
</gpx>